<?xml version="1.0" encoding="UTF-8" standalone="no" ?>
<gpx xmlns="http://www.topografix.com/GPX/1/1" xmlns:xsi="http://www.w3.org/2001/XMLSchema-instance" xsi:schemaLocation="http://www.topografix.com/GPX/1/1 http://www.topografix.com/GPX/1/1/gpx.xsd" version="1.1" creator="VisuGPX - https://www.visugpx.com">
  <metadata>
    <name>tournée C1 BAL</name>
    <desc><![CDATA[tournée C1 BAL Lanester PPDc]]></desc>
  </metadata>
  <trk>
    <name><![CDATA[Tournée C1]]></name>
    <desc><![CDATA[]]></desc>
    <trkseg>
      <trkpt lat="47.7452" lon="-3.3642">
        <ele>64</ele>
        <time>2015-01-16T12:34:53.705Z</time>
      </trkpt>
      <trkpt lat="47.74521" lon="-3.36426">
        <ele>61</ele>
        <time>2015-01-16T12:35:30.496Z</time>
      </trkpt>
      <trkpt lat="47.74521" lon="-3.36425">
        <ele>61</ele>
        <time>2015-01-16T12:35:31.486Z</time>
      </trkpt>
      <trkpt lat="47.74521" lon="-3.36425">
        <ele>61</ele>
        <time>2015-01-16T12:35:32.206Z</time>
      </trkpt>
      <trkpt lat="47.74521" lon="-3.36425">
        <ele>60</ele>
        <time>2015-01-16T12:35:32.480Z</time>
      </trkpt>
      <trkpt lat="47.74527" lon="-3.36419">
        <ele>62</ele>
        <time>2015-01-16T12:35:39.473Z</time>
      </trkpt>
      <trkpt lat="47.74531" lon="-3.36416">
        <ele>62</ele>
        <time>2015-01-16T12:35:40.469Z</time>
      </trkpt>
      <trkpt lat="47.74539" lon="-3.36411">
        <ele>62</ele>
        <time>2015-01-16T12:35:42.274Z</time>
      </trkpt>
      <trkpt lat="47.74548" lon="-3.36404">
        <ele>63</ele>
        <time>2015-01-16T12:35:42.504Z</time>
      </trkpt>
      <trkpt lat="47.74557" lon="-3.36397">
        <ele>62</ele>
        <time>2015-01-16T12:35:43.487Z</time>
      </trkpt>
      <trkpt lat="47.74564" lon="-3.36392">
        <ele>62</ele>
        <time>2015-01-16T12:35:44.500Z</time>
      </trkpt>
      <trkpt lat="47.74571" lon="-3.36386">
        <ele>62</ele>
        <time>2015-01-16T12:35:45.487Z</time>
      </trkpt>
      <trkpt lat="47.74576" lon="-3.36382">
        <ele>62</ele>
        <time>2015-01-16T12:35:46.489Z</time>
      </trkpt>
      <trkpt lat="47.7458" lon="-3.36377">
        <ele>62</ele>
        <time>2015-01-16T12:35:47.501Z</time>
      </trkpt>
      <trkpt lat="47.74587" lon="-3.36372">
        <ele>58</ele>
        <time>2015-01-16T12:35:56.511Z</time>
      </trkpt>
      <trkpt lat="47.74587" lon="-3.36372">
        <ele>58</ele>
        <time>2015-01-16T12:35:57.518Z</time>
      </trkpt>
      <trkpt lat="47.74587" lon="-3.36372">
        <ele>57</ele>
        <time>2015-01-16T12:36:01.482Z</time>
      </trkpt>
      <trkpt lat="47.74588" lon="-3.36372">
        <ele>57</ele>
        <time>2015-01-16T12:36:02.477Z</time>
      </trkpt>
      <trkpt lat="47.74593" lon="-3.36376">
        <ele>57</ele>
        <time>2015-01-16T12:36:04.467Z</time>
      </trkpt>
      <trkpt lat="47.74596" lon="-3.36381">
        <ele>56</ele>
        <time>2015-01-16T12:36:05.487Z</time>
      </trkpt>
      <trkpt lat="47.74599" lon="-3.36389">
        <ele>56</ele>
        <time>2015-01-16T12:36:06.476Z</time>
      </trkpt>
      <trkpt lat="47.74602" lon="-3.36398">
        <ele>55</ele>
        <time>2015-01-16T12:36:07.471Z</time>
      </trkpt>
      <trkpt lat="47.74607" lon="-3.36409">
        <ele>54</ele>
        <time>2015-01-16T12:36:08.479Z</time>
      </trkpt>
      <trkpt lat="47.74614" lon="-3.36423">
        <ele>55</ele>
        <time>2015-01-16T12:36:09.463Z</time>
      </trkpt>
      <trkpt lat="47.7462" lon="-3.36438">
        <ele>55</ele>
        <time>2015-01-16T12:36:10.478Z</time>
      </trkpt>
      <trkpt lat="47.74625" lon="-3.36452">
        <ele>55</ele>
        <time>2015-01-16T12:36:11.492Z</time>
      </trkpt>
      <trkpt lat="47.74631" lon="-3.36466">
        <ele>55</ele>
        <time>2015-01-16T12:36:12.505Z</time>
      </trkpt>
      <trkpt lat="47.74637" lon="-3.36479">
        <ele>55</ele>
        <time>2015-01-16T12:36:13.494Z</time>
      </trkpt>
      <trkpt lat="47.74643" lon="-3.36493">
        <ele>55</ele>
        <time>2015-01-16T12:36:14.500Z</time>
      </trkpt>
      <trkpt lat="47.74648" lon="-3.36508">
        <ele>54</ele>
        <time>2015-01-16T12:36:15.503Z</time>
      </trkpt>
      <trkpt lat="47.74653" lon="-3.36521">
        <ele>54</ele>
        <time>2015-01-16T12:36:16.507Z</time>
      </trkpt>
      <trkpt lat="47.74658" lon="-3.36532">
        <ele>54</ele>
        <time>2015-01-16T12:36:17.488Z</time>
      </trkpt>
      <trkpt lat="47.74662" lon="-3.36542">
        <ele>55</ele>
        <time>2015-01-16T12:36:18.507Z</time>
      </trkpt>
      <trkpt lat="47.74666" lon="-3.36552">
        <ele>55</ele>
        <time>2015-01-16T12:36:19.499Z</time>
      </trkpt>
      <trkpt lat="47.7467" lon="-3.3656">
        <ele>55</ele>
        <time>2015-01-16T12:36:20.498Z</time>
      </trkpt>
      <trkpt lat="47.74672" lon="-3.36567">
        <ele>55</ele>
        <time>2015-01-16T12:36:21.507Z</time>
      </trkpt>
      <trkpt lat="47.74674" lon="-3.36574">
        <ele>55</ele>
        <time>2015-01-16T12:36:22.503Z</time>
      </trkpt>
      <trkpt lat="47.74676" lon="-3.36581">
        <ele>56</ele>
        <time>2015-01-16T12:36:23.511Z</time>
      </trkpt>
      <trkpt lat="47.74679" lon="-3.36587">
        <ele>56</ele>
        <time>2015-01-16T12:36:24.513Z</time>
      </trkpt>
      <trkpt lat="47.74683" lon="-3.36595">
        <ele>56</ele>
        <time>2015-01-16T12:36:26.501Z</time>
      </trkpt>
      <trkpt lat="47.74685" lon="-3.36598">
        <ele>56</ele>
        <time>2015-01-16T12:36:27.505Z</time>
      </trkpt>
      <trkpt lat="47.74693" lon="-3.366">
        <ele>57</ele>
        <time>2015-01-16T12:36:31.475Z</time>
      </trkpt>
      <trkpt lat="47.74694" lon="-3.36599">
        <ele>57</ele>
        <time>2015-01-16T12:36:32.493Z</time>
      </trkpt>
      <trkpt lat="47.747" lon="-3.36593">
        <ele>57</ele>
        <time>2015-01-16T12:36:35.493Z</time>
      </trkpt>
      <trkpt lat="47.74705" lon="-3.36587">
        <ele>57</ele>
        <time>2015-01-16T12:36:36.493Z</time>
      </trkpt>
      <trkpt lat="47.74711" lon="-3.36578">
        <ele>57</ele>
        <time>2015-01-16T12:36:37.475Z</time>
      </trkpt>
      <trkpt lat="47.74718" lon="-3.36567">
        <ele>56</ele>
        <time>2015-01-16T12:36:38.472Z</time>
      </trkpt>
      <trkpt lat="47.74725" lon="-3.36557">
        <ele>56</ele>
        <time>2015-01-16T12:36:39.493Z</time>
      </trkpt>
      <trkpt lat="47.74732" lon="-3.36549">
        <ele>56</ele>
        <time>2015-01-16T12:36:40.505Z</time>
      </trkpt>
      <trkpt lat="47.74738" lon="-3.36542">
        <ele>56</ele>
        <time>2015-01-16T12:36:41.510Z</time>
      </trkpt>
      <trkpt lat="47.74744" lon="-3.36534">
        <ele>56</ele>
        <time>2015-01-16T12:36:43.523Z</time>
      </trkpt>
      <trkpt lat="47.74746" lon="-3.36532">
        <ele>56</ele>
        <time>2015-01-16T12:36:44.509Z</time>
      </trkpt>
      <trkpt lat="47.74752" lon="-3.36524">
        <ele>56</ele>
        <time>2015-01-16T12:36:49.490Z</time>
      </trkpt>
      <trkpt lat="47.74756" lon="-3.3652">
        <ele>57</ele>
        <time>2015-01-16T12:36:50.481Z</time>
      </trkpt>
      <trkpt lat="47.7476" lon="-3.36514">
        <ele>56</ele>
        <time>2015-01-16T12:36:51.498Z</time>
      </trkpt>
      <trkpt lat="47.74764" lon="-3.36509">
        <ele>56</ele>
        <time>2015-01-16T12:36:52.486Z</time>
      </trkpt>
      <trkpt lat="47.74767" lon="-3.36504">
        <ele>56</ele>
        <time>2015-01-16T12:36:53.488Z</time>
      </trkpt>
      <trkpt lat="47.74769" lon="-3.36498">
        <ele>56</ele>
        <time>2015-01-16T12:36:54.489Z</time>
      </trkpt>
      <trkpt lat="47.74772" lon="-3.36491">
        <ele>56</ele>
        <time>2015-01-16T12:36:55.481Z</time>
      </trkpt>
      <trkpt lat="47.74775" lon="-3.36487">
        <ele>56</ele>
        <time>2015-01-16T12:36:56.538Z</time>
      </trkpt>
      <trkpt lat="47.74781" lon="-3.36483">
        <ele>56</ele>
        <time>2015-01-16T12:36:58.491Z</time>
      </trkpt>
      <trkpt lat="47.74784" lon="-3.36483">
        <ele>56</ele>
        <time>2015-01-16T12:36:59.512Z</time>
      </trkpt>
      <trkpt lat="47.7479" lon="-3.36491">
        <ele>56</ele>
        <time>2015-01-16T12:37:02.509Z</time>
      </trkpt>
      <trkpt lat="47.74792" lon="-3.36495">
        <ele>56</ele>
        <time>2015-01-16T12:37:03.494Z</time>
      </trkpt>
      <trkpt lat="47.74797" lon="-3.36505">
        <ele>55</ele>
        <time>2015-01-16T12:37:08.519Z</time>
      </trkpt>
      <trkpt lat="47.74798" lon="-3.36509">
        <ele>53</ele>
        <time>2015-01-16T12:37:09.518Z</time>
      </trkpt>
      <trkpt lat="47.74803" lon="-3.36517">
        <ele>55</ele>
        <time>2015-01-16T12:39:27.453Z</time>
      </trkpt>
      <trkpt lat="47.74802" lon="-3.36517">
        <ele>55</ele>
        <time>2015-01-16T12:39:28.468Z</time>
      </trkpt>
      <trkpt lat="47.74801" lon="-3.3652">
        <ele>56</ele>
        <time>2015-01-16T12:39:33.462Z</time>
      </trkpt>
      <trkpt lat="47.74802" lon="-3.36519">
        <ele>56</ele>
        <time>2015-01-16T12:39:34.485Z</time>
      </trkpt>
      <trkpt lat="47.74808" lon="-3.36521">
        <ele>56</ele>
        <time>2015-01-16T12:39:38.502Z</time>
      </trkpt>
      <trkpt lat="47.74812" lon="-3.36523">
        <ele>56</ele>
        <time>2015-01-16T12:39:39.486Z</time>
      </trkpt>
      <trkpt lat="47.74817" lon="-3.36526">
        <ele>55</ele>
        <time>2015-01-16T12:39:40.482Z</time>
      </trkpt>
      <trkpt lat="47.74824" lon="-3.3653">
        <ele>56</ele>
        <time>2015-01-16T12:39:41.491Z</time>
      </trkpt>
      <trkpt lat="47.74831" lon="-3.36534">
        <ele>56</ele>
        <time>2015-01-16T12:39:42.489Z</time>
      </trkpt>
      <trkpt lat="47.74838" lon="-3.36538">
        <ele>55</ele>
        <time>2015-01-16T12:39:43.483Z</time>
      </trkpt>
      <trkpt lat="47.74844" lon="-3.36542">
        <ele>55</ele>
        <time>2015-01-16T12:39:44.501Z</time>
      </trkpt>
      <trkpt lat="47.74851" lon="-3.36545">
        <ele>55</ele>
        <time>2015-01-16T12:39:45.528Z</time>
      </trkpt>
      <trkpt lat="47.74857" lon="-3.36548">
        <ele>55</ele>
        <time>2015-01-16T12:39:46.481Z</time>
      </trkpt>
      <trkpt lat="47.74863" lon="-3.36551">
        <ele>55</ele>
        <time>2015-01-16T12:39:47.469Z</time>
      </trkpt>
      <trkpt lat="47.74868" lon="-3.36554">
        <ele>55</ele>
        <time>2015-01-16T12:39:48.489Z</time>
      </trkpt>
      <trkpt lat="47.74873" lon="-3.36557">
        <ele>56</ele>
        <time>2015-01-16T12:39:49.470Z</time>
      </trkpt>
      <trkpt lat="47.74879" lon="-3.3656">
        <ele>56</ele>
        <time>2015-01-16T12:39:50.482Z</time>
      </trkpt>
      <trkpt lat="47.74886" lon="-3.36565">
        <ele>56</ele>
        <time>2015-01-16T12:39:51.476Z</time>
      </trkpt>
      <trkpt lat="47.74896" lon="-3.36569">
        <ele>56</ele>
        <time>2015-01-16T12:39:52.474Z</time>
      </trkpt>
      <trkpt lat="47.74906" lon="-3.36574">
        <ele>56</ele>
        <time>2015-01-16T12:39:53.463Z</time>
      </trkpt>
      <trkpt lat="47.74916" lon="-3.3658">
        <ele>56</ele>
        <time>2015-01-16T12:39:54.488Z</time>
      </trkpt>
      <trkpt lat="47.74926" lon="-3.36584">
        <ele>56</ele>
        <time>2015-01-16T12:39:55.485Z</time>
      </trkpt>
      <trkpt lat="47.74935" lon="-3.36589">
        <ele>57</ele>
        <time>2015-01-16T12:39:56.464Z</time>
      </trkpt>
      <trkpt lat="47.74945" lon="-3.36594">
        <ele>57</ele>
        <time>2015-01-16T12:39:57.490Z</time>
      </trkpt>
      <trkpt lat="47.74955" lon="-3.366">
        <ele>57</ele>
        <time>2015-01-16T12:39:58.501Z</time>
      </trkpt>
      <trkpt lat="47.74965" lon="-3.36605">
        <ele>56</ele>
        <time>2015-01-16T12:39:59.496Z</time>
      </trkpt>
      <trkpt lat="47.74974" lon="-3.3661">
        <ele>57</ele>
        <time>2015-01-16T12:40:00.484Z</time>
      </trkpt>
      <trkpt lat="47.74981" lon="-3.36615">
        <ele>58</ele>
        <time>2015-01-16T12:40:01.488Z</time>
      </trkpt>
      <trkpt lat="47.74988" lon="-3.36619">
        <ele>58</ele>
        <time>2015-01-16T12:40:02.498Z</time>
      </trkpt>
      <trkpt lat="47.74993" lon="-3.36621">
        <ele>59</ele>
        <time>2015-01-16T12:40:03.502Z</time>
      </trkpt>
      <trkpt lat="47.74997" lon="-3.36623">
        <ele>59</ele>
        <time>2015-01-16T12:40:04.475Z</time>
      </trkpt>
      <trkpt lat="47.75002" lon="-3.36624">
        <ele>59</ele>
        <time>2015-01-16T12:40:05.460Z</time>
      </trkpt>
      <trkpt lat="47.75007" lon="-3.36624">
        <ele>59</ele>
        <time>2015-01-16T12:40:06.483Z</time>
      </trkpt>
      <trkpt lat="47.75014" lon="-3.36624">
        <ele>59</ele>
        <time>2015-01-16T12:40:07.483Z</time>
      </trkpt>
      <trkpt lat="47.7502" lon="-3.3662">
        <ele>60</ele>
        <time>2015-01-16T12:40:08.478Z</time>
      </trkpt>
      <trkpt lat="47.75026" lon="-3.36617">
        <ele>60</ele>
        <time>2015-01-16T12:40:09.476Z</time>
      </trkpt>
      <trkpt lat="47.75034" lon="-3.36608">
        <ele>59</ele>
        <time>2015-01-16T12:40:10.462Z</time>
      </trkpt>
      <trkpt lat="47.75042" lon="-3.36601">
        <ele>58</ele>
        <time>2015-01-16T12:40:11.484Z</time>
      </trkpt>
      <trkpt lat="47.75047" lon="-3.36598">
        <ele>57</ele>
        <time>2015-01-16T12:40:12.480Z</time>
      </trkpt>
      <trkpt lat="47.75053" lon="-3.36593">
        <ele>57</ele>
        <time>2015-01-16T12:40:13.470Z</time>
      </trkpt>
      <trkpt lat="47.75059" lon="-3.36589">
        <ele>57</ele>
        <time>2015-01-16T12:40:14.490Z</time>
      </trkpt>
      <trkpt lat="47.75063" lon="-3.36586">
        <ele>58</ele>
        <time>2015-01-16T12:40:15.495Z</time>
      </trkpt>
      <trkpt lat="47.75068" lon="-3.36582">
        <ele>58</ele>
        <time>2015-01-16T12:40:16.492Z</time>
      </trkpt>
      <trkpt lat="47.75074" lon="-3.36574">
        <ele>58</ele>
        <time>2015-01-16T12:40:18.490Z</time>
      </trkpt>
      <trkpt lat="47.75076" lon="-3.36572">
        <ele>59</ele>
        <time>2015-01-16T12:40:19.511Z</time>
      </trkpt>
      <trkpt lat="47.7508" lon="-3.36562">
        <ele>62</ele>
        <time>2015-01-16T12:40:26.491Z</time>
      </trkpt>
      <trkpt lat="47.75081" lon="-3.36561">
        <ele>62</ele>
        <time>2015-01-16T12:40:27.486Z</time>
      </trkpt>
      <trkpt lat="47.75079" lon="-3.36562">
        <ele>60</ele>
        <time>2015-01-16T12:42:47.499Z</time>
      </trkpt>
      <trkpt lat="47.75079" lon="-3.36563">
        <ele>60</ele>
        <time>2015-01-16T12:42:48.488Z</time>
      </trkpt>
      <trkpt lat="47.75079" lon="-3.36563">
        <ele>60</ele>
        <time>2015-01-16T12:42:49.504Z</time>
      </trkpt>
      <trkpt lat="47.7508" lon="-3.36563">
        <ele>61</ele>
        <time>2015-01-16T12:42:50.486Z</time>
      </trkpt>
      <trkpt lat="47.75084" lon="-3.36561">
        <ele>58</ele>
        <time>2015-01-16T12:42:55.500Z</time>
      </trkpt>
      <trkpt lat="47.7509" lon="-3.36559">
        <ele>58</ele>
        <time>2015-01-16T12:42:56.495Z</time>
      </trkpt>
      <trkpt lat="47.75102" lon="-3.36551">
        <ele>59</ele>
        <time>2015-01-16T12:42:57.489Z</time>
      </trkpt>
      <trkpt lat="47.75111" lon="-3.36546">
        <ele>58</ele>
        <time>2015-01-16T12:42:58.486Z</time>
      </trkpt>
      <trkpt lat="47.75119" lon="-3.3654">
        <ele>58</ele>
        <time>2015-01-16T12:42:59.500Z</time>
      </trkpt>
      <trkpt lat="47.75126" lon="-3.36536">
        <ele>59</ele>
        <time>2015-01-16T12:43:00.494Z</time>
      </trkpt>
      <trkpt lat="47.75132" lon="-3.36533">
        <ele>59</ele>
        <time>2015-01-16T12:43:01.452Z</time>
      </trkpt>
      <trkpt lat="47.75135" lon="-3.3653">
        <ele>59</ele>
        <time>2015-01-16T12:43:02.476Z</time>
      </trkpt>
      <trkpt lat="47.75142" lon="-3.36525">
        <ele>59</ele>
        <time>2015-01-16T12:43:07.465Z</time>
      </trkpt>
      <trkpt lat="47.75144" lon="-3.36524">
        <ele>60</ele>
        <time>2015-01-16T12:43:08.474Z</time>
      </trkpt>
      <trkpt lat="47.75149" lon="-3.36519">
        <ele>60</ele>
        <time>2015-01-16T12:43:10.472Z</time>
      </trkpt>
      <trkpt lat="47.75152" lon="-3.36515">
        <ele>61</ele>
        <time>2015-01-16T12:43:11.487Z</time>
      </trkpt>
      <trkpt lat="47.75155" lon="-3.36508">
        <ele>62</ele>
        <time>2015-01-16T12:43:14.510Z</time>
      </trkpt>
      <trkpt lat="47.75157" lon="-3.36502">
        <ele>61</ele>
        <time>2015-01-16T12:43:15.505Z</time>
      </trkpt>
      <trkpt lat="47.75159" lon="-3.36495">
        <ele>62</ele>
        <time>2015-01-16T12:43:16.496Z</time>
      </trkpt>
      <trkpt lat="47.75157" lon="-3.36487">
        <ele>62</ele>
        <time>2015-01-16T12:43:17.500Z</time>
      </trkpt>
      <trkpt lat="47.75153" lon="-3.3648">
        <ele>62</ele>
        <time>2015-01-16T12:43:18.495Z</time>
      </trkpt>
      <trkpt lat="47.75149" lon="-3.36471">
        <ele>63</ele>
        <time>2015-01-16T12:43:19.503Z</time>
      </trkpt>
      <trkpt lat="47.75143" lon="-3.36459">
        <ele>63</ele>
        <time>2015-01-16T12:43:20.493Z</time>
      </trkpt>
      <trkpt lat="47.75136" lon="-3.36447">
        <ele>63</ele>
        <time>2015-01-16T12:43:21.484Z</time>
      </trkpt>
      <trkpt lat="47.75131" lon="-3.36437">
        <ele>62</ele>
        <time>2015-01-16T12:43:22.462Z</time>
      </trkpt>
      <trkpt lat="47.75126" lon="-3.36428">
        <ele>62</ele>
        <time>2015-01-16T12:43:23.487Z</time>
      </trkpt>
      <trkpt lat="47.75121" lon="-3.36419">
        <ele>62</ele>
        <time>2015-01-16T12:43:24.467Z</time>
      </trkpt>
      <trkpt lat="47.75116" lon="-3.3641">
        <ele>63</ele>
        <time>2015-01-16T12:43:25.477Z</time>
      </trkpt>
      <trkpt lat="47.7511" lon="-3.364">
        <ele>63</ele>
        <time>2015-01-16T12:43:26.475Z</time>
      </trkpt>
      <trkpt lat="47.75104" lon="-3.36388">
        <ele>63</ele>
        <time>2015-01-16T12:43:27.493Z</time>
      </trkpt>
      <trkpt lat="47.75098" lon="-3.36377">
        <ele>63</ele>
        <time>2015-01-16T12:43:28.491Z</time>
      </trkpt>
      <trkpt lat="47.75093" lon="-3.36367">
        <ele>63</ele>
        <time>2015-01-16T12:43:29.485Z</time>
      </trkpt>
      <trkpt lat="47.75087" lon="-3.36357">
        <ele>63</ele>
        <time>2015-01-16T12:43:30.476Z</time>
      </trkpt>
      <trkpt lat="47.75082" lon="-3.36348">
        <ele>63</ele>
        <time>2015-01-16T12:43:31.473Z</time>
      </trkpt>
      <trkpt lat="47.75077" lon="-3.3634">
        <ele>63</ele>
        <time>2015-01-16T12:43:32.476Z</time>
      </trkpt>
      <trkpt lat="47.75073" lon="-3.36333">
        <ele>64</ele>
        <time>2015-01-16T12:43:37.494Z</time>
      </trkpt>
      <trkpt lat="47.75071" lon="-3.3633">
        <ele>63</ele>
        <time>2015-01-16T12:43:38.481Z</time>
      </trkpt>
      <trkpt lat="47.75068" lon="-3.36324">
        <ele>63</ele>
        <time>2015-01-16T12:43:39.473Z</time>
      </trkpt>
      <trkpt lat="47.75065" lon="-3.36317">
        <ele>63</ele>
        <time>2015-01-16T12:43:40.489Z</time>
      </trkpt>
      <trkpt lat="47.75062" lon="-3.36311">
        <ele>63</ele>
        <time>2015-01-16T12:43:41.466Z</time>
      </trkpt>
      <trkpt lat="47.75059" lon="-3.36306">
        <ele>63</ele>
        <time>2015-01-16T12:43:42.483Z</time>
      </trkpt>
      <trkpt lat="47.75055" lon="-3.363">
        <ele>64</ele>
        <time>2015-01-16T12:43:43.479Z</time>
      </trkpt>
      <trkpt lat="47.75051" lon="-3.36297">
        <ele>63</ele>
        <time>2015-01-16T12:43:44.479Z</time>
      </trkpt>
      <trkpt lat="47.75047" lon="-3.36297">
        <ele>62</ele>
        <time>2015-01-16T12:43:45.480Z</time>
      </trkpt>
      <trkpt lat="47.75041" lon="-3.36299">
        <ele>62</ele>
        <time>2015-01-16T12:43:46.491Z</time>
      </trkpt>
      <trkpt lat="47.75035" lon="-3.36302">
        <ele>61</ele>
        <time>2015-01-16T12:43:47.464Z</time>
      </trkpt>
      <trkpt lat="47.75029" lon="-3.36308">
        <ele>61</ele>
        <time>2015-01-16T12:43:48.471Z</time>
      </trkpt>
      <trkpt lat="47.75025" lon="-3.36311">
        <ele>59</ele>
        <time>2015-01-16T12:43:49.459Z</time>
      </trkpt>
      <trkpt lat="47.7502" lon="-3.36312">
        <ele>60</ele>
        <time>2015-01-16T12:43:50.474Z</time>
      </trkpt>
      <trkpt lat="47.75014" lon="-3.36307">
        <ele>59</ele>
        <time>2015-01-16T12:43:52.495Z</time>
      </trkpt>
      <trkpt lat="47.75011" lon="-3.36297">
        <ele>60</ele>
        <time>2015-01-16T12:43:53.482Z</time>
      </trkpt>
      <trkpt lat="47.75008" lon="-3.36288">
        <ele>60</ele>
        <time>2015-01-16T12:43:54.478Z</time>
      </trkpt>
      <trkpt lat="47.75005" lon="-3.36279">
        <ele>60</ele>
        <time>2015-01-16T12:43:55.481Z</time>
      </trkpt>
      <trkpt lat="47.75002" lon="-3.36269">
        <ele>60</ele>
        <time>2015-01-16T12:43:56.497Z</time>
      </trkpt>
      <trkpt lat="47.74999" lon="-3.36259">
        <ele>61</ele>
        <time>2015-01-16T12:43:57.489Z</time>
      </trkpt>
      <trkpt lat="47.74996" lon="-3.36251">
        <ele>60</ele>
        <time>2015-01-16T12:43:58.502Z</time>
      </trkpt>
      <trkpt lat="47.74995" lon="-3.36245">
        <ele>60</ele>
        <time>2015-01-16T12:43:59.511Z</time>
      </trkpt>
      <trkpt lat="47.74993" lon="-3.36232">
        <ele>60</ele>
        <time>2015-01-16T12:44:05.504Z</time>
      </trkpt>
      <trkpt lat="47.74993" lon="-3.3623">
        <ele>60</ele>
        <time>2015-01-16T12:44:06.491Z</time>
      </trkpt>
      <trkpt lat="47.74996" lon="-3.36224">
        <ele>59</ele>
        <time>2015-01-16T12:44:08.493Z</time>
      </trkpt>
      <trkpt lat="47.75001" lon="-3.36222">
        <ele>60</ele>
        <time>2015-01-16T12:44:09.501Z</time>
      </trkpt>
      <trkpt lat="47.75008" lon="-3.36217">
        <ele>62</ele>
        <time>2015-01-16T12:45:08.506Z</time>
      </trkpt>
      <trkpt lat="47.7501" lon="-3.36217">
        <ele>60</ele>
        <time>2015-01-16T12:45:09.506Z</time>
      </trkpt>
      <trkpt lat="47.75018" lon="-3.36212">
        <ele>61</ele>
        <time>2015-01-16T12:45:12.504Z</time>
      </trkpt>
      <trkpt lat="47.75019" lon="-3.36211">
        <ele>61</ele>
        <time>2015-01-16T12:45:13.476Z</time>
      </trkpt>
      <trkpt lat="47.7502" lon="-3.36198">
        <ele>59</ele>
        <time>2015-01-16T12:45:20.483Z</time>
      </trkpt>
      <trkpt lat="47.75019" lon="-3.36196">
        <ele>60</ele>
        <time>2015-01-16T12:45:21.462Z</time>
      </trkpt>
      <trkpt lat="47.75015" lon="-3.36185">
        <ele>64</ele>
        <time>2015-01-16T12:45:26.471Z</time>
      </trkpt>
      <trkpt lat="47.75014" lon="-3.36181">
        <ele>65</ele>
        <time>2015-01-16T12:45:27.468Z</time>
      </trkpt>
      <trkpt lat="47.75011" lon="-3.3617">
        <ele>64</ele>
        <time>2015-01-16T12:45:29.465Z</time>
      </trkpt>
      <trkpt lat="47.75008" lon="-3.36162">
        <ele>63</ele>
        <time>2015-01-16T12:45:30.472Z</time>
      </trkpt>
      <trkpt lat="47.75006" lon="-3.36153">
        <ele>64</ele>
        <time>2015-01-16T12:45:31.480Z</time>
      </trkpt>
      <trkpt lat="47.75002" lon="-3.36142">
        <ele>64</ele>
        <time>2015-01-16T12:45:32.463Z</time>
      </trkpt>
      <trkpt lat="47.74999" lon="-3.36132">
        <ele>64</ele>
        <time>2015-01-16T12:45:33.470Z</time>
      </trkpt>
      <trkpt lat="47.74997" lon="-3.36123">
        <ele>64</ele>
        <time>2015-01-16T12:45:34.489Z</time>
      </trkpt>
      <trkpt lat="47.74994" lon="-3.36114">
        <ele>64</ele>
        <time>2015-01-16T12:45:35.482Z</time>
      </trkpt>
      <trkpt lat="47.74991" lon="-3.36104">
        <ele>64</ele>
        <time>2015-01-16T12:45:36.479Z</time>
      </trkpt>
      <trkpt lat="47.74988" lon="-3.36091">
        <ele>65</ele>
        <time>2015-01-16T12:45:37.511Z</time>
      </trkpt>
      <trkpt lat="47.74985" lon="-3.3608">
        <ele>65</ele>
        <time>2015-01-16T12:45:38.495Z</time>
      </trkpt>
      <trkpt lat="47.74981" lon="-3.36069">
        <ele>64</ele>
        <time>2015-01-16T12:45:39.499Z</time>
      </trkpt>
      <trkpt lat="47.74978" lon="-3.36058">
        <ele>64</ele>
        <time>2015-01-16T12:45:40.488Z</time>
      </trkpt>
      <trkpt lat="47.74974" lon="-3.36047">
        <ele>64</ele>
        <time>2015-01-16T12:45:41.481Z</time>
      </trkpt>
      <trkpt lat="47.7497" lon="-3.36035">
        <ele>64</ele>
        <time>2015-01-16T12:45:42.506Z</time>
      </trkpt>
      <trkpt lat="47.74966" lon="-3.36024">
        <ele>63</ele>
        <time>2015-01-16T12:45:43.491Z</time>
      </trkpt>
      <trkpt lat="47.74963" lon="-3.36014">
        <ele>63</ele>
        <time>2015-01-16T12:45:44.501Z</time>
      </trkpt>
      <trkpt lat="47.74961" lon="-3.36007">
        <ele>63</ele>
        <time>2015-01-16T12:45:45.492Z</time>
      </trkpt>
      <trkpt lat="47.74959" lon="-3.36001">
        <ele>63</ele>
        <time>2015-01-16T12:45:46.481Z</time>
      </trkpt>
      <trkpt lat="47.74952" lon="-3.35993">
        <ele>61</ele>
        <time>2015-01-16T12:45:50.502Z</time>
      </trkpt>
      <trkpt lat="47.74948" lon="-3.35995">
        <ele>61</ele>
        <time>2015-01-16T12:45:51.495Z</time>
      </trkpt>
      <trkpt lat="47.74941" lon="-3.35998">
        <ele>60</ele>
        <time>2015-01-16T12:45:53.508Z</time>
      </trkpt>
      <trkpt lat="47.74934" lon="-3.36002">
        <ele>60</ele>
        <time>2015-01-16T12:45:54.504Z</time>
      </trkpt>
      <trkpt lat="47.74925" lon="-3.36007">
        <ele>60</ele>
        <time>2015-01-16T12:45:55.496Z</time>
      </trkpt>
      <trkpt lat="47.74916" lon="-3.36011">
        <ele>60</ele>
        <time>2015-01-16T12:45:56.514Z</time>
      </trkpt>
      <trkpt lat="47.74909" lon="-3.36015">
        <ele>60</ele>
        <time>2015-01-16T12:45:57.502Z</time>
      </trkpt>
      <trkpt lat="47.74902" lon="-3.36018">
        <ele>61</ele>
        <time>2015-01-16T12:45:58.505Z</time>
      </trkpt>
      <trkpt lat="47.74896" lon="-3.3602">
        <ele>61</ele>
        <time>2015-01-16T12:45:59.503Z</time>
      </trkpt>
      <trkpt lat="47.7489" lon="-3.36021">
        <ele>61</ele>
        <time>2015-01-16T12:46:00.486Z</time>
      </trkpt>
      <trkpt lat="47.74885" lon="-3.36019">
        <ele>61</ele>
        <time>2015-01-16T12:46:01.495Z</time>
      </trkpt>
      <trkpt lat="47.74881" lon="-3.36014">
        <ele>61</ele>
        <time>2015-01-16T12:46:02.491Z</time>
      </trkpt>
      <trkpt lat="47.74876" lon="-3.36007">
        <ele>62</ele>
        <time>2015-01-16T12:46:03.505Z</time>
      </trkpt>
      <trkpt lat="47.74871" lon="-3.35999">
        <ele>61</ele>
        <time>2015-01-16T12:46:04.502Z</time>
      </trkpt>
      <trkpt lat="47.74863" lon="-3.35991">
        <ele>61</ele>
        <time>2015-01-16T12:46:05.495Z</time>
      </trkpt>
      <trkpt lat="47.74855" lon="-3.35983">
        <ele>60</ele>
        <time>2015-01-16T12:46:06.496Z</time>
      </trkpt>
      <trkpt lat="47.74847" lon="-3.35976">
        <ele>61</ele>
        <time>2015-01-16T12:46:07.492Z</time>
      </trkpt>
      <trkpt lat="47.7484" lon="-3.35969">
        <ele>61</ele>
        <time>2015-01-16T12:46:08.494Z</time>
      </trkpt>
      <trkpt lat="47.74834" lon="-3.35962">
        <ele>61</ele>
        <time>2015-01-16T12:46:09.495Z</time>
      </trkpt>
      <trkpt lat="47.74827" lon="-3.35956">
        <ele>61</ele>
        <time>2015-01-16T12:46:10.495Z</time>
      </trkpt>
      <trkpt lat="47.7482" lon="-3.35949">
        <ele>61</ele>
        <time>2015-01-16T12:46:11.496Z</time>
      </trkpt>
      <trkpt lat="47.74813" lon="-3.35942">
        <ele>62</ele>
        <time>2015-01-16T12:46:12.504Z</time>
      </trkpt>
      <trkpt lat="47.74807" lon="-3.35936">
        <ele>62</ele>
        <time>2015-01-16T12:46:13.489Z</time>
      </trkpt>
      <trkpt lat="47.74801" lon="-3.35931">
        <ele>62</ele>
        <time>2015-01-16T12:46:14.491Z</time>
      </trkpt>
      <trkpt lat="47.74796" lon="-3.35924">
        <ele>62</ele>
        <time>2015-01-16T12:46:15.498Z</time>
      </trkpt>
      <trkpt lat="47.7479" lon="-3.35916">
        <ele>61</ele>
        <time>2015-01-16T12:46:18.485Z</time>
      </trkpt>
      <trkpt lat="47.74788" lon="-3.35914">
        <ele>61</ele>
        <time>2015-01-16T12:46:19.503Z</time>
      </trkpt>
      <trkpt lat="47.7478" lon="-3.35909">
        <ele>60</ele>
        <time>2015-01-16T12:46:23.501Z</time>
      </trkpt>
      <trkpt lat="47.74777" lon="-3.35908">
        <ele>60</ele>
        <time>2015-01-16T12:46:24.488Z</time>
      </trkpt>
      <trkpt lat="47.74776" lon="-3.35904">
        <ele>63</ele>
        <time>2015-01-16T12:48:45.510Z</time>
      </trkpt>
      <trkpt lat="47.74776" lon="-3.35904">
        <ele>63</ele>
        <time>2015-01-16T12:48:46.509Z</time>
      </trkpt>
      <trkpt lat="47.74775" lon="-3.35903">
        <ele>63</ele>
        <time>2015-01-16T12:48:47.516Z</time>
      </trkpt>
      <trkpt lat="47.74769" lon="-3.35903">
        <ele>65</ele>
        <time>2015-01-16T12:48:53.507Z</time>
      </trkpt>
      <trkpt lat="47.74765" lon="-3.35905">
        <ele>64</ele>
        <time>2015-01-16T12:48:54.499Z</time>
      </trkpt>
      <trkpt lat="47.74759" lon="-3.35908">
        <ele>63</ele>
        <time>2015-01-16T12:48:55.504Z</time>
      </trkpt>
      <trkpt lat="47.74754" lon="-3.35914">
        <ele>63</ele>
        <time>2015-01-16T12:48:56.499Z</time>
      </trkpt>
      <trkpt lat="47.7475" lon="-3.35923">
        <ele>62</ele>
        <time>2015-01-16T12:48:58.492Z</time>
      </trkpt>
      <trkpt lat="47.74752" lon="-3.35929">
        <ele>62</ele>
        <time>2015-01-16T12:48:59.495Z</time>
      </trkpt>
      <trkpt lat="47.74754" lon="-3.35935">
        <ele>61</ele>
        <time>2015-01-16T12:49:00.501Z</time>
      </trkpt>
      <trkpt lat="47.74756" lon="-3.35943">
        <ele>61</ele>
        <time>2015-01-16T12:49:01.486Z</time>
      </trkpt>
      <trkpt lat="47.7476" lon="-3.35951">
        <ele>61</ele>
        <time>2015-01-16T12:49:02.486Z</time>
      </trkpt>
      <trkpt lat="47.74763" lon="-3.3596">
        <ele>61</ele>
        <time>2015-01-16T12:49:03.488Z</time>
      </trkpt>
      <trkpt lat="47.74766" lon="-3.35969">
        <ele>61</ele>
        <time>2015-01-16T12:49:04.494Z</time>
      </trkpt>
      <trkpt lat="47.74772" lon="-3.35975">
        <ele>58</ele>
        <time>2015-01-16T12:49:05.483Z</time>
      </trkpt>
      <trkpt lat="47.74774" lon="-3.35983">
        <ele>59</ele>
        <time>2015-01-16T12:49:06.493Z</time>
      </trkpt>
      <trkpt lat="47.74776" lon="-3.35988">
        <ele>58</ele>
        <time>2015-01-16T12:49:07.488Z</time>
      </trkpt>
      <trkpt lat="47.74779" lon="-3.35998">
        <ele>58</ele>
        <time>2015-01-16T12:49:11.487Z</time>
      </trkpt>
      <trkpt lat="47.74781" lon="-3.36002">
        <ele>58</ele>
        <time>2015-01-16T12:49:12.599Z</time>
      </trkpt>
      <trkpt lat="47.74784" lon="-3.36014">
        <ele>58</ele>
        <time>2015-01-16T12:49:14.499Z</time>
      </trkpt>
      <trkpt lat="47.74788" lon="-3.36023">
        <ele>58</ele>
        <time>2015-01-16T12:49:15.499Z</time>
      </trkpt>
      <trkpt lat="47.74792" lon="-3.36033">
        <ele>58</ele>
        <time>2015-01-16T12:49:16.494Z</time>
      </trkpt>
      <trkpt lat="47.74796" lon="-3.36043">
        <ele>58</ele>
        <time>2015-01-16T12:49:17.491Z</time>
      </trkpt>
      <trkpt lat="47.74799" lon="-3.36052">
        <ele>57</ele>
        <time>2015-01-16T12:49:18.496Z</time>
      </trkpt>
      <trkpt lat="47.74801" lon="-3.36059">
        <ele>57</ele>
        <time>2015-01-16T12:49:19.504Z</time>
      </trkpt>
      <trkpt lat="47.74803" lon="-3.36066">
        <ele>58</ele>
        <time>2015-01-16T12:49:20.500Z</time>
      </trkpt>
      <trkpt lat="47.74805" lon="-3.36073">
        <ele>58</ele>
        <time>2015-01-16T12:49:21.493Z</time>
      </trkpt>
      <trkpt lat="47.74808" lon="-3.36081">
        <ele>58</ele>
        <time>2015-01-16T12:49:22.489Z</time>
      </trkpt>
      <trkpt lat="47.74811" lon="-3.36092">
        <ele>58</ele>
        <time>2015-01-16T12:49:23.505Z</time>
      </trkpt>
      <trkpt lat="47.74816" lon="-3.36103">
        <ele>58</ele>
        <time>2015-01-16T12:49:24.495Z</time>
      </trkpt>
      <trkpt lat="47.7482" lon="-3.36115">
        <ele>59</ele>
        <time>2015-01-16T12:49:25.508Z</time>
      </trkpt>
      <trkpt lat="47.74824" lon="-3.36126">
        <ele>59</ele>
        <time>2015-01-16T12:49:26.492Z</time>
      </trkpt>
      <trkpt lat="47.74828" lon="-3.36137">
        <ele>59</ele>
        <time>2015-01-16T12:49:27.493Z</time>
      </trkpt>
      <trkpt lat="47.74831" lon="-3.36145">
        <ele>59</ele>
        <time>2015-01-16T12:49:28.490Z</time>
      </trkpt>
      <trkpt lat="47.74833" lon="-3.36151">
        <ele>60</ele>
        <time>2015-01-16T12:49:29.491Z</time>
      </trkpt>
      <trkpt lat="47.74835" lon="-3.36157">
        <ele>61</ele>
        <time>2015-01-16T12:49:30.510Z</time>
      </trkpt>
      <trkpt lat="47.74837" lon="-3.36165">
        <ele>60</ele>
        <time>2015-01-16T12:49:31.493Z</time>
      </trkpt>
      <trkpt lat="47.74839" lon="-3.36172">
        <ele>60</ele>
        <time>2015-01-16T12:49:32.501Z</time>
      </trkpt>
      <trkpt lat="47.74844" lon="-3.36182">
        <ele>60</ele>
        <time>2015-01-16T12:49:34.497Z</time>
      </trkpt>
      <trkpt lat="47.74845" lon="-3.36184">
        <ele>61</ele>
        <time>2015-01-16T12:49:35.521Z</time>
      </trkpt>
      <trkpt lat="47.74845" lon="-3.36197">
        <ele>63</ele>
        <time>2015-01-16T12:49:57.495Z</time>
      </trkpt>
      <trkpt lat="47.74845" lon="-3.36197">
        <ele>63</ele>
        <time>2015-01-16T12:49:58.492Z</time>
      </trkpt>
      <trkpt lat="47.74849" lon="-3.36205">
        <ele>63</ele>
        <time>2015-01-16T12:52:04.488Z</time>
      </trkpt>
      <trkpt lat="47.74853" lon="-3.36215">
        <ele>63</ele>
        <time>2015-01-16T12:52:05.497Z</time>
      </trkpt>
      <trkpt lat="47.74856" lon="-3.36223">
        <ele>63</ele>
        <time>2015-01-16T12:52:06.492Z</time>
      </trkpt>
      <trkpt lat="47.74858" lon="-3.36231">
        <ele>63</ele>
        <time>2015-01-16T12:52:07.488Z</time>
      </trkpt>
      <trkpt lat="47.74862" lon="-3.3624">
        <ele>63</ele>
        <time>2015-01-16T12:52:08.487Z</time>
      </trkpt>
      <trkpt lat="47.74866" lon="-3.36251">
        <ele>63</ele>
        <time>2015-01-16T12:52:09.473Z</time>
      </trkpt>
      <trkpt lat="47.74871" lon="-3.36263">
        <ele>63</ele>
        <time>2015-01-16T12:52:10.495Z</time>
      </trkpt>
      <trkpt lat="47.74875" lon="-3.36274">
        <ele>63</ele>
        <time>2015-01-16T12:52:11.485Z</time>
      </trkpt>
      <trkpt lat="47.74878" lon="-3.36282">
        <ele>63</ele>
        <time>2015-01-16T12:52:12.507Z</time>
      </trkpt>
      <trkpt lat="47.74883" lon="-3.36292">
        <ele>62</ele>
        <time>2015-01-16T12:52:14.495Z</time>
      </trkpt>
      <trkpt lat="47.74884" lon="-3.36294">
        <ele>62</ele>
        <time>2015-01-16T12:52:15.487Z</time>
      </trkpt>
      <trkpt lat="47.74888" lon="-3.36305">
        <ele>61</ele>
        <time>2015-01-16T12:52:18.506Z</time>
      </trkpt>
      <trkpt lat="47.74891" lon="-3.36315">
        <ele>61</ele>
        <time>2015-01-16T12:52:19.491Z</time>
      </trkpt>
      <trkpt lat="47.74895" lon="-3.36323">
        <ele>61</ele>
        <time>2015-01-16T12:52:20.458Z</time>
      </trkpt>
      <trkpt lat="47.74898" lon="-3.36333">
        <ele>61</ele>
        <time>2015-01-16T12:52:21.457Z</time>
      </trkpt>
      <trkpt lat="47.74902" lon="-3.36343">
        <ele>61</ele>
        <time>2015-01-16T12:52:22.469Z</time>
      </trkpt>
      <trkpt lat="47.74905" lon="-3.36353">
        <ele>62</ele>
        <time>2015-01-16T12:52:23.487Z</time>
      </trkpt>
      <trkpt lat="47.74909" lon="-3.36364">
        <ele>62</ele>
        <time>2015-01-16T12:52:24.478Z</time>
      </trkpt>
      <trkpt lat="47.74913" lon="-3.36374">
        <ele>62</ele>
        <time>2015-01-16T12:52:25.530Z</time>
      </trkpt>
      <trkpt lat="47.74916" lon="-3.36382">
        <ele>63</ele>
        <time>2015-01-16T12:52:26.473Z</time>
      </trkpt>
      <trkpt lat="47.74917" lon="-3.36387">
        <ele>63</ele>
        <time>2015-01-16T12:52:27.464Z</time>
      </trkpt>
      <trkpt lat="47.74922" lon="-3.36392">
        <ele>62</ele>
        <time>2015-01-16T12:52:30.476Z</time>
      </trkpt>
      <trkpt lat="47.74928" lon="-3.36389">
        <ele>63</ele>
        <time>2015-01-16T12:52:31.485Z</time>
      </trkpt>
      <trkpt lat="47.74932" lon="-3.36384">
        <ele>62</ele>
        <time>2015-01-16T12:52:32.490Z</time>
      </trkpt>
      <trkpt lat="47.74938" lon="-3.36378">
        <ele>61</ele>
        <time>2015-01-16T12:52:33.470Z</time>
      </trkpt>
      <trkpt lat="47.74948" lon="-3.36371">
        <ele>62</ele>
        <time>2015-01-16T12:52:34.488Z</time>
      </trkpt>
      <trkpt lat="47.74957" lon="-3.36363">
        <ele>62</ele>
        <time>2015-01-16T12:52:35.499Z</time>
      </trkpt>
      <trkpt lat="47.74965" lon="-3.36356">
        <ele>61</ele>
        <time>2015-01-16T12:52:36.501Z</time>
      </trkpt>
      <trkpt lat="47.74972" lon="-3.36351">
        <ele>62</ele>
        <time>2015-01-16T12:52:37.502Z</time>
      </trkpt>
      <trkpt lat="47.74977" lon="-3.36346">
        <ele>61</ele>
        <time>2015-01-16T12:52:38.485Z</time>
      </trkpt>
      <trkpt lat="47.74983" lon="-3.3634">
        <ele>61</ele>
        <time>2015-01-16T12:52:39.485Z</time>
      </trkpt>
      <trkpt lat="47.74992" lon="-3.36334">
        <ele>62</ele>
        <time>2015-01-16T12:52:40.488Z</time>
      </trkpt>
      <trkpt lat="47.75002" lon="-3.36328">
        <ele>61</ele>
        <time>2015-01-16T12:52:41.494Z</time>
      </trkpt>
      <trkpt lat="47.7501" lon="-3.36321">
        <ele>61</ele>
        <time>2015-01-16T12:52:42.510Z</time>
      </trkpt>
      <trkpt lat="47.75018" lon="-3.36317">
        <ele>62</ele>
        <time>2015-01-16T12:52:43.492Z</time>
      </trkpt>
      <trkpt lat="47.75026" lon="-3.36311">
        <ele>62</ele>
        <time>2015-01-16T12:52:44.490Z</time>
      </trkpt>
      <trkpt lat="47.75033" lon="-3.36307">
        <ele>63</ele>
        <time>2015-01-16T12:52:45.499Z</time>
      </trkpt>
      <trkpt lat="47.75039" lon="-3.36303">
        <ele>64</ele>
        <time>2015-01-16T12:52:46.503Z</time>
      </trkpt>
      <trkpt lat="47.75047" lon="-3.36298">
        <ele>64</ele>
        <time>2015-01-16T12:52:48.487Z</time>
      </trkpt>
      <trkpt lat="47.75048" lon="-3.36297">
        <ele>64</ele>
        <time>2015-01-16T12:52:49.475Z</time>
      </trkpt>
      <trkpt lat="47.75056" lon="-3.36301">
        <ele>61</ele>
        <time>2015-01-16T12:52:57.496Z</time>
      </trkpt>
      <trkpt lat="47.75059" lon="-3.36307">
        <ele>62</ele>
        <time>2015-01-16T12:52:58.483Z</time>
      </trkpt>
      <trkpt lat="47.75063" lon="-3.36313">
        <ele>62</ele>
        <time>2015-01-16T12:52:59.484Z</time>
      </trkpt>
      <trkpt lat="47.75068" lon="-3.36322">
        <ele>62</ele>
        <time>2015-01-16T12:53:00.489Z</time>
      </trkpt>
      <trkpt lat="47.75073" lon="-3.36333">
        <ele>61</ele>
        <time>2015-01-16T12:53:01.489Z</time>
      </trkpt>
      <trkpt lat="47.75079" lon="-3.36343">
        <ele>61</ele>
        <time>2015-01-16T12:53:02.499Z</time>
      </trkpt>
      <trkpt lat="47.75084" lon="-3.36353">
        <ele>61</ele>
        <time>2015-01-16T12:53:03.500Z</time>
      </trkpt>
      <trkpt lat="47.75089" lon="-3.36362">
        <ele>61</ele>
        <time>2015-01-16T12:53:04.492Z</time>
      </trkpt>
      <trkpt lat="47.75095" lon="-3.3637">
        <ele>61</ele>
        <time>2015-01-16T12:53:05.496Z</time>
      </trkpt>
      <trkpt lat="47.751" lon="-3.36378">
        <ele>61</ele>
        <time>2015-01-16T12:53:06.493Z</time>
      </trkpt>
      <trkpt lat="47.75105" lon="-3.36388">
        <ele>61</ele>
        <time>2015-01-16T12:53:07.497Z</time>
      </trkpt>
      <trkpt lat="47.75111" lon="-3.36398">
        <ele>62</ele>
        <time>2015-01-16T12:53:08.501Z</time>
      </trkpt>
      <trkpt lat="47.75118" lon="-3.36409">
        <ele>62</ele>
        <time>2015-01-16T12:53:09.476Z</time>
      </trkpt>
      <trkpt lat="47.75124" lon="-3.36418">
        <ele>61</ele>
        <time>2015-01-16T12:53:10.481Z</time>
      </trkpt>
      <trkpt lat="47.75128" lon="-3.36427">
        <ele>61</ele>
        <time>2015-01-16T12:53:11.495Z</time>
      </trkpt>
      <trkpt lat="47.75132" lon="-3.36435">
        <ele>62</ele>
        <time>2015-01-16T12:53:12.503Z</time>
      </trkpt>
      <trkpt lat="47.75135" lon="-3.36442">
        <ele>62</ele>
        <time>2015-01-16T12:53:13.489Z</time>
      </trkpt>
      <trkpt lat="47.75138" lon="-3.36447">
        <ele>62</ele>
        <time>2015-01-16T12:53:14.499Z</time>
      </trkpt>
      <trkpt lat="47.75141" lon="-3.36454">
        <ele>62</ele>
        <time>2015-01-16T12:53:15.492Z</time>
      </trkpt>
      <trkpt lat="47.75144" lon="-3.3646">
        <ele>62</ele>
        <time>2015-01-16T12:53:16.498Z</time>
      </trkpt>
      <trkpt lat="47.75147" lon="-3.36465">
        <ele>63</ele>
        <time>2015-01-16T12:53:17.487Z</time>
      </trkpt>
      <trkpt lat="47.75152" lon="-3.36474">
        <ele>65</ele>
        <time>2015-01-16T12:53:19.490Z</time>
      </trkpt>
      <trkpt lat="47.75154" lon="-3.36478">
        <ele>65</ele>
        <time>2015-01-16T12:53:20.490Z</time>
      </trkpt>
      <trkpt lat="47.75159" lon="-3.36486">
        <ele>67</ele>
        <time>2015-01-16T12:53:24.482Z</time>
      </trkpt>
      <trkpt lat="47.75161" lon="-3.3649">
        <ele>67</ele>
        <time>2015-01-16T12:53:25.487Z</time>
      </trkpt>
      <trkpt lat="47.75164" lon="-3.36494">
        <ele>67</ele>
        <time>2015-01-16T12:53:27.484Z</time>
      </trkpt>
      <trkpt lat="47.75164" lon="-3.36493">
        <ele>67</ele>
        <time>2015-01-16T12:53:28.512Z</time>
      </trkpt>
      <trkpt lat="47.75165" lon="-3.36494">
        <ele>67</ele>
        <time>2015-01-16T12:53:29.480Z</time>
      </trkpt>
      <trkpt lat="47.75165" lon="-3.36494">
        <ele>67</ele>
        <time>2015-01-16T12:53:30.488Z</time>
      </trkpt>
      <trkpt lat="47.75165" lon="-3.36494">
        <ele>67</ele>
        <time>2015-01-16T12:53:31.486Z</time>
      </trkpt>
      <trkpt lat="47.75169" lon="-3.36498">
        <ele>67</ele>
        <time>2015-01-16T12:53:33.570Z</time>
      </trkpt>
      <trkpt lat="47.75175" lon="-3.36504">
        <ele>66</ele>
        <time>2015-01-16T12:53:34.508Z</time>
      </trkpt>
      <trkpt lat="47.75178" lon="-3.36509">
        <ele>66</ele>
        <time>2015-01-16T12:53:35.494Z</time>
      </trkpt>
      <trkpt lat="47.75181" lon="-3.36514">
        <ele>67</ele>
        <time>2015-01-16T12:53:36.486Z</time>
      </trkpt>
      <trkpt lat="47.75184" lon="-3.36518">
        <ele>67</ele>
        <time>2015-01-16T12:53:37.494Z</time>
      </trkpt>
      <trkpt lat="47.75188" lon="-3.36523">
        <ele>68</ele>
        <time>2015-01-16T12:53:38.502Z</time>
      </trkpt>
      <trkpt lat="47.75196" lon="-3.36529">
        <ele>66</ele>
        <time>2015-01-16T12:53:40.499Z</time>
      </trkpt>
      <trkpt lat="47.75199" lon="-3.36529">
        <ele>67</ele>
        <time>2015-01-16T12:53:41.490Z</time>
      </trkpt>
      <trkpt lat="47.75206" lon="-3.36531">
        <ele>67</ele>
        <time>2015-01-16T12:53:43.494Z</time>
      </trkpt>
      <trkpt lat="47.75209" lon="-3.36532">
        <ele>67</ele>
        <time>2015-01-16T12:53:44.504Z</time>
      </trkpt>
      <trkpt lat="47.75213" lon="-3.36533">
        <ele>67</ele>
        <time>2015-01-16T12:53:45.485Z</time>
      </trkpt>
      <trkpt lat="47.75218" lon="-3.36535">
        <ele>66</ele>
        <time>2015-01-16T12:53:46.481Z</time>
      </trkpt>
      <trkpt lat="47.75224" lon="-3.36538">
        <ele>66</ele>
        <time>2015-01-16T12:53:47.503Z</time>
      </trkpt>
      <trkpt lat="47.7523" lon="-3.3654">
        <ele>66</ele>
        <time>2015-01-16T12:53:48.485Z</time>
      </trkpt>
      <trkpt lat="47.75237" lon="-3.36543">
        <ele>65</ele>
        <time>2015-01-16T12:53:49.503Z</time>
      </trkpt>
      <trkpt lat="47.75245" lon="-3.36546">
        <ele>65</ele>
        <time>2015-01-16T12:53:50.483Z</time>
      </trkpt>
      <trkpt lat="47.75255" lon="-3.3655">
        <ele>64</ele>
        <time>2015-01-16T12:53:51.491Z</time>
      </trkpt>
      <trkpt lat="47.75265" lon="-3.36554">
        <ele>64</ele>
        <time>2015-01-16T12:53:52.505Z</time>
      </trkpt>
      <trkpt lat="47.75275" lon="-3.36557">
        <ele>64</ele>
        <time>2015-01-16T12:53:53.499Z</time>
      </trkpt>
      <trkpt lat="47.75284" lon="-3.3656">
        <ele>64</ele>
        <time>2015-01-16T12:53:54.487Z</time>
      </trkpt>
      <trkpt lat="47.75292" lon="-3.36563">
        <ele>64</ele>
        <time>2015-01-16T12:53:55.484Z</time>
      </trkpt>
      <trkpt lat="47.753" lon="-3.36566">
        <ele>64</ele>
        <time>2015-01-16T12:53:56.497Z</time>
      </trkpt>
      <trkpt lat="47.75306" lon="-3.36569">
        <ele>64</ele>
        <time>2015-01-16T12:53:57.495Z</time>
      </trkpt>
      <trkpt lat="47.75313" lon="-3.36571">
        <ele>64</ele>
        <time>2015-01-16T12:53:58.497Z</time>
      </trkpt>
      <trkpt lat="47.75319" lon="-3.36574">
        <ele>64</ele>
        <time>2015-01-16T12:53:59.489Z</time>
      </trkpt>
      <trkpt lat="47.75324" lon="-3.36576">
        <ele>64</ele>
        <time>2015-01-16T12:54:00.482Z</time>
      </trkpt>
      <trkpt lat="47.75328" lon="-3.36577">
        <ele>64</ele>
        <time>2015-01-16T12:54:01.499Z</time>
      </trkpt>
      <trkpt lat="47.75333" lon="-3.36579">
        <ele>64</ele>
        <time>2015-01-16T12:54:02.483Z</time>
      </trkpt>
      <trkpt lat="47.75341" lon="-3.36583">
        <ele>63</ele>
        <time>2015-01-16T12:54:04.486Z</time>
      </trkpt>
      <trkpt lat="47.75344" lon="-3.36584">
        <ele>63</ele>
        <time>2015-01-16T12:54:05.497Z</time>
      </trkpt>
      <trkpt lat="47.75348" lon="-3.36573">
        <ele>63</ele>
        <time>2015-01-16T12:54:10.501Z</time>
      </trkpt>
      <trkpt lat="47.7535" lon="-3.36569">
        <ele>64</ele>
        <time>2015-01-16T12:54:11.491Z</time>
      </trkpt>
      <trkpt lat="47.75355" lon="-3.36557">
        <ele>63</ele>
        <time>2015-01-16T12:54:22.462Z</time>
      </trkpt>
      <trkpt lat="47.75355" lon="-3.36557">
        <ele>63</ele>
        <time>2015-01-16T12:54:23.478Z</time>
      </trkpt>
      <trkpt lat="47.75352" lon="-3.36544">
        <ele>63</ele>
        <time>2015-01-16T12:55:56.487Z</time>
      </trkpt>
      <trkpt lat="47.75352" lon="-3.36539">
        <ele>64</ele>
        <time>2015-01-16T12:55:57.487Z</time>
      </trkpt>
      <trkpt lat="47.75352" lon="-3.36526">
        <ele>64</ele>
        <time>2015-01-16T12:56:00.490Z</time>
      </trkpt>
      <trkpt lat="47.75353" lon="-3.36526">
        <ele>64</ele>
        <time>2015-01-16T12:56:01.495Z</time>
      </trkpt>
      <trkpt lat="47.75353" lon="-3.36534">
        <ele>67</ele>
        <time>2015-01-16T12:56:12.492Z</time>
      </trkpt>
      <trkpt lat="47.75353" lon="-3.3654">
        <ele>67</ele>
        <time>2015-01-16T12:56:13.491Z</time>
      </trkpt>
      <trkpt lat="47.75353" lon="-3.36547">
        <ele>66</ele>
        <time>2015-01-16T12:56:14.491Z</time>
      </trkpt>
      <trkpt lat="47.75351" lon="-3.36557">
        <ele>66</ele>
        <time>2015-01-16T12:56:15.484Z</time>
      </trkpt>
      <trkpt lat="47.7535" lon="-3.36566">
        <ele>66</ele>
        <time>2015-01-16T12:56:16.496Z</time>
      </trkpt>
      <trkpt lat="47.75349" lon="-3.36572">
        <ele>65</ele>
        <time>2015-01-16T12:56:17.491Z</time>
      </trkpt>
      <trkpt lat="47.75349" lon="-3.36577">
        <ele>64</ele>
        <time>2015-01-16T12:56:19.494Z</time>
      </trkpt>
      <trkpt lat="47.75348" lon="-3.36577">
        <ele>64</ele>
        <time>2015-01-16T12:56:20.491Z</time>
      </trkpt>
      <trkpt lat="47.75348" lon="-3.36578">
        <ele>63</ele>
        <time>2015-01-16T12:56:21.506Z</time>
      </trkpt>
      <trkpt lat="47.75355" lon="-3.36583">
        <ele>62</ele>
        <time>2015-01-16T12:56:25.484Z</time>
      </trkpt>
      <trkpt lat="47.75358" lon="-3.36585">
        <ele>63</ele>
        <time>2015-01-16T12:56:26.484Z</time>
      </trkpt>
      <trkpt lat="47.75364" lon="-3.36586">
        <ele>63</ele>
        <time>2015-01-16T12:56:27.493Z</time>
      </trkpt>
      <trkpt lat="47.75372" lon="-3.3659">
        <ele>63</ele>
        <time>2015-01-16T12:56:28.500Z</time>
      </trkpt>
      <trkpt lat="47.7538" lon="-3.36593">
        <ele>64</ele>
        <time>2015-01-16T12:56:29.481Z</time>
      </trkpt>
      <trkpt lat="47.75388" lon="-3.36597">
        <ele>64</ele>
        <time>2015-01-16T12:56:30.485Z</time>
      </trkpt>
      <trkpt lat="47.75394" lon="-3.366">
        <ele>64</ele>
        <time>2015-01-16T12:56:31.503Z</time>
      </trkpt>
      <trkpt lat="47.75401" lon="-3.36603">
        <ele>65</ele>
        <time>2015-01-16T12:56:32.506Z</time>
      </trkpt>
      <trkpt lat="47.75408" lon="-3.36606">
        <ele>65</ele>
        <time>2015-01-16T12:56:33.510Z</time>
      </trkpt>
      <trkpt lat="47.75414" lon="-3.36608">
        <ele>66</ele>
        <time>2015-01-16T12:56:34.481Z</time>
      </trkpt>
      <trkpt lat="47.75418" lon="-3.3661">
        <ele>67</ele>
        <time>2015-01-16T12:56:35.496Z</time>
      </trkpt>
      <trkpt lat="47.75422" lon="-3.3661">
        <ele>66</ele>
        <time>2015-01-16T12:56:36.486Z</time>
      </trkpt>
      <trkpt lat="47.7543" lon="-3.36611">
        <ele>66</ele>
        <time>2015-01-16T12:56:38.490Z</time>
      </trkpt>
      <trkpt lat="47.75433" lon="-3.36614">
        <ele>66</ele>
        <time>2015-01-16T12:56:39.474Z</time>
      </trkpt>
      <trkpt lat="47.75433" lon="-3.36625">
        <ele>65</ele>
        <time>2015-01-16T12:56:41.500Z</time>
      </trkpt>
      <trkpt lat="47.75433" lon="-3.36629">
        <ele>66</ele>
        <time>2015-01-16T12:56:42.488Z</time>
      </trkpt>
      <trkpt lat="47.75433" lon="-3.36637">
        <ele>66</ele>
        <time>2015-01-16T12:56:44.491Z</time>
      </trkpt>
      <trkpt lat="47.75431" lon="-3.36644">
        <ele>66</ele>
        <time>2015-01-16T12:56:45.484Z</time>
      </trkpt>
      <trkpt lat="47.7543" lon="-3.36654">
        <ele>66</ele>
        <time>2015-01-16T12:56:49.486Z</time>
      </trkpt>
      <trkpt lat="47.75429" lon="-3.36658">
        <ele>66</ele>
        <time>2015-01-16T12:56:50.491Z</time>
      </trkpt>
      <trkpt lat="47.75428" lon="-3.36668">
        <ele>66</ele>
        <time>2015-01-16T12:56:52.495Z</time>
      </trkpt>
      <trkpt lat="47.75427" lon="-3.36672">
        <ele>66</ele>
        <time>2015-01-16T12:56:53.499Z</time>
      </trkpt>
      <trkpt lat="47.75425" lon="-3.36682">
        <ele>66</ele>
        <time>2015-01-16T12:56:55.493Z</time>
      </trkpt>
      <trkpt lat="47.75424" lon="-3.36686">
        <ele>66</ele>
        <time>2015-01-16T12:56:56.493Z</time>
      </trkpt>
      <trkpt lat="47.75422" lon="-3.36697">
        <ele>66</ele>
        <time>2015-01-16T12:56:59.499Z</time>
      </trkpt>
      <trkpt lat="47.75422" lon="-3.367">
        <ele>66</ele>
        <time>2015-01-16T12:57:00.497Z</time>
      </trkpt>
      <trkpt lat="47.75418" lon="-3.36711">
        <ele>65</ele>
        <time>2015-01-16T12:58:23.478Z</time>
      </trkpt>
      <trkpt lat="47.75417" lon="-3.36713">
        <ele>65</ele>
        <time>2015-01-16T12:58:24.479Z</time>
      </trkpt>
      <trkpt lat="47.75411" lon="-3.36721">
        <ele>63</ele>
        <time>2015-01-16T12:58:29.480Z</time>
      </trkpt>
      <trkpt lat="47.75409" lon="-3.36726">
        <ele>64</ele>
        <time>2015-01-16T12:58:30.488Z</time>
      </trkpt>
      <trkpt lat="47.75407" lon="-3.36732">
        <ele>63</ele>
        <time>2015-01-16T12:58:31.491Z</time>
      </trkpt>
      <trkpt lat="47.75406" lon="-3.36739">
        <ele>63</ele>
        <time>2015-01-16T12:58:32.529Z</time>
      </trkpt>
      <trkpt lat="47.75404" lon="-3.36748">
        <ele>62</ele>
        <time>2015-01-16T12:58:33.501Z</time>
      </trkpt>
      <trkpt lat="47.75402" lon="-3.36758">
        <ele>62</ele>
        <time>2015-01-16T12:58:34.506Z</time>
      </trkpt>
      <trkpt lat="47.75401" lon="-3.36767">
        <ele>62</ele>
        <time>2015-01-16T12:58:35.490Z</time>
      </trkpt>
      <trkpt lat="47.75399" lon="-3.36777">
        <ele>61</ele>
        <time>2015-01-16T12:58:36.492Z</time>
      </trkpt>
      <trkpt lat="47.75397" lon="-3.36788">
        <ele>61</ele>
        <time>2015-01-16T12:58:37.491Z</time>
      </trkpt>
      <trkpt lat="47.75395" lon="-3.368">
        <ele>61</ele>
        <time>2015-01-16T12:58:38.489Z</time>
      </trkpt>
      <trkpt lat="47.75393" lon="-3.36811">
        <ele>60</ele>
        <time>2015-01-16T12:58:39.494Z</time>
      </trkpt>
      <trkpt lat="47.75392" lon="-3.36823">
        <ele>60</ele>
        <time>2015-01-16T12:58:40.496Z</time>
      </trkpt>
      <trkpt lat="47.75389" lon="-3.36834">
        <ele>59</ele>
        <time>2015-01-16T12:58:41.496Z</time>
      </trkpt>
      <trkpt lat="47.75388" lon="-3.36846">
        <ele>59</ele>
        <time>2015-01-16T12:58:42.487Z</time>
      </trkpt>
      <trkpt lat="47.75386" lon="-3.36857">
        <ele>59</ele>
        <time>2015-01-16T12:58:43.490Z</time>
      </trkpt>
      <trkpt lat="47.75384" lon="-3.36867">
        <ele>59</ele>
        <time>2015-01-16T12:58:44.494Z</time>
      </trkpt>
      <trkpt lat="47.75382" lon="-3.36879">
        <ele>59</ele>
        <time>2015-01-16T12:58:45.496Z</time>
      </trkpt>
      <trkpt lat="47.7538" lon="-3.36893">
        <ele>59</ele>
        <time>2015-01-16T12:58:46.490Z</time>
      </trkpt>
      <trkpt lat="47.75378" lon="-3.36908">
        <ele>59</ele>
        <time>2015-01-16T12:58:47.473Z</time>
      </trkpt>
      <trkpt lat="47.75375" lon="-3.36921">
        <ele>59</ele>
        <time>2015-01-16T12:58:48.485Z</time>
      </trkpt>
      <trkpt lat="47.75373" lon="-3.36933">
        <ele>59</ele>
        <time>2015-01-16T12:58:49.495Z</time>
      </trkpt>
      <trkpt lat="47.75371" lon="-3.36944">
        <ele>59</ele>
        <time>2015-01-16T12:58:50.494Z</time>
      </trkpt>
      <trkpt lat="47.7537" lon="-3.36953">
        <ele>59</ele>
        <time>2015-01-16T12:58:51.502Z</time>
      </trkpt>
      <trkpt lat="47.75368" lon="-3.36961">
        <ele>59</ele>
        <time>2015-01-16T12:58:52.487Z</time>
      </trkpt>
      <trkpt lat="47.75366" lon="-3.36972">
        <ele>58</ele>
        <time>2015-01-16T12:58:54.488Z</time>
      </trkpt>
      <trkpt lat="47.75365" lon="-3.36976">
        <ele>58</ele>
        <time>2015-01-16T12:58:55.504Z</time>
      </trkpt>
      <trkpt lat="47.75364" lon="-3.36989">
        <ele>59</ele>
        <time>2015-01-16T12:59:01.494Z</time>
      </trkpt>
      <trkpt lat="47.75364" lon="-3.36989">
        <ele>59</ele>
        <time>2015-01-16T12:59:02.494Z</time>
      </trkpt>
      <trkpt lat="47.75364" lon="-3.36989">
        <ele>59</ele>
        <time>2015-01-16T12:59:04.485Z</time>
      </trkpt>
      <trkpt lat="47.75364" lon="-3.36989">
        <ele>59</ele>
        <time>2015-01-16T12:59:05.496Z</time>
      </trkpt>
      <trkpt lat="47.75362" lon="-3.36996">
        <ele>59</ele>
        <time>2015-01-16T12:59:09.500Z</time>
      </trkpt>
      <trkpt lat="47.75361" lon="-3.37002">
        <ele>59</ele>
        <time>2015-01-16T12:59:10.502Z</time>
      </trkpt>
      <trkpt lat="47.7536" lon="-3.37009">
        <ele>59</ele>
        <time>2015-01-16T12:59:11.485Z</time>
      </trkpt>
      <trkpt lat="47.75358" lon="-3.37018">
        <ele>59</ele>
        <time>2015-01-16T12:59:12.489Z</time>
      </trkpt>
      <trkpt lat="47.75357" lon="-3.37029">
        <ele>59</ele>
        <time>2015-01-16T12:59:13.505Z</time>
      </trkpt>
      <trkpt lat="47.75355" lon="-3.37042">
        <ele>59</ele>
        <time>2015-01-16T12:59:14.498Z</time>
      </trkpt>
      <trkpt lat="47.75352" lon="-3.37054">
        <ele>59</ele>
        <time>2015-01-16T12:59:15.500Z</time>
      </trkpt>
      <trkpt lat="47.7535" lon="-3.37067">
        <ele>59</ele>
        <time>2015-01-16T12:59:16.485Z</time>
      </trkpt>
      <trkpt lat="47.75348" lon="-3.37082">
        <ele>58</ele>
        <time>2015-01-16T12:59:17.480Z</time>
      </trkpt>
      <trkpt lat="47.75346" lon="-3.37097">
        <ele>58</ele>
        <time>2015-01-16T12:59:18.494Z</time>
      </trkpt>
      <trkpt lat="47.75344" lon="-3.3711">
        <ele>58</ele>
        <time>2015-01-16T12:59:19.497Z</time>
      </trkpt>
      <trkpt lat="47.75342" lon="-3.37123">
        <ele>58</ele>
        <time>2015-01-16T12:59:20.485Z</time>
      </trkpt>
      <trkpt lat="47.75341" lon="-3.37136">
        <ele>57</ele>
        <time>2015-01-16T12:59:21.492Z</time>
      </trkpt>
      <trkpt lat="47.75339" lon="-3.37148">
        <ele>57</ele>
        <time>2015-01-16T12:59:22.484Z</time>
      </trkpt>
      <trkpt lat="47.75339" lon="-3.37162">
        <ele>57</ele>
        <time>2015-01-16T12:59:23.515Z</time>
      </trkpt>
      <trkpt lat="47.75338" lon="-3.37175">
        <ele>57</ele>
        <time>2015-01-16T12:59:24.499Z</time>
      </trkpt>
      <trkpt lat="47.75337" lon="-3.37189">
        <ele>58</ele>
        <time>2015-01-16T12:59:25.510Z</time>
      </trkpt>
      <trkpt lat="47.75337" lon="-3.37203">
        <ele>57</ele>
        <time>2015-01-16T12:59:26.453Z</time>
      </trkpt>
      <trkpt lat="47.75335" lon="-3.37219">
        <ele>57</ele>
        <time>2015-01-16T12:59:27.488Z</time>
      </trkpt>
      <trkpt lat="47.75334" lon="-3.37234">
        <ele>57</ele>
        <time>2015-01-16T12:59:28.500Z</time>
      </trkpt>
      <trkpt lat="47.75333" lon="-3.37251">
        <ele>57</ele>
        <time>2015-01-16T12:59:29.501Z</time>
      </trkpt>
      <trkpt lat="47.75332" lon="-3.37268">
        <ele>58</ele>
        <time>2015-01-16T12:59:30.511Z</time>
      </trkpt>
      <trkpt lat="47.75331" lon="-3.37285">
        <ele>58</ele>
        <time>2015-01-16T12:59:31.491Z</time>
      </trkpt>
      <trkpt lat="47.7533" lon="-3.37303">
        <ele>58</ele>
        <time>2015-01-16T12:59:32.496Z</time>
      </trkpt>
      <trkpt lat="47.75329" lon="-3.3732">
        <ele>59</ele>
        <time>2015-01-16T12:59:33.494Z</time>
      </trkpt>
      <trkpt lat="47.75327" lon="-3.37338">
        <ele>59</ele>
        <time>2015-01-16T12:59:34.500Z</time>
      </trkpt>
      <trkpt lat="47.75326" lon="-3.37357">
        <ele>59</ele>
        <time>2015-01-16T12:59:35.482Z</time>
      </trkpt>
      <trkpt lat="47.75324" lon="-3.37378">
        <ele>60</ele>
        <time>2015-01-16T12:59:36.490Z</time>
      </trkpt>
      <trkpt lat="47.75323" lon="-3.37397">
        <ele>59</ele>
        <time>2015-01-16T12:59:37.487Z</time>
      </trkpt>
      <trkpt lat="47.75321" lon="-3.37416">
        <ele>59</ele>
        <time>2015-01-16T12:59:38.504Z</time>
      </trkpt>
      <trkpt lat="47.7532" lon="-3.37436">
        <ele>60</ele>
        <time>2015-01-16T12:59:39.510Z</time>
      </trkpt>
      <trkpt lat="47.75318" lon="-3.37455">
        <ele>61</ele>
        <time>2015-01-16T12:59:40.501Z</time>
      </trkpt>
      <trkpt lat="47.75317" lon="-3.37471">
        <ele>61</ele>
        <time>2015-01-16T12:59:41.492Z</time>
      </trkpt>
      <trkpt lat="47.75314" lon="-3.37487">
        <ele>61</ele>
        <time>2015-01-16T12:59:42.486Z</time>
      </trkpt>
      <trkpt lat="47.75313" lon="-3.375">
        <ele>61</ele>
        <time>2015-01-16T12:59:43.496Z</time>
      </trkpt>
      <trkpt lat="47.75312" lon="-3.37512">
        <ele>62</ele>
        <time>2015-01-16T12:59:44.503Z</time>
      </trkpt>
      <trkpt lat="47.75312" lon="-3.37522">
        <ele>62</ele>
        <time>2015-01-16T12:59:45.499Z</time>
      </trkpt>
      <trkpt lat="47.75314" lon="-3.37528">
        <ele>61</ele>
        <time>2015-01-16T12:59:46.492Z</time>
      </trkpt>
      <trkpt lat="47.75317" lon="-3.37537">
        <ele>62</ele>
        <time>2015-01-16T12:59:48.492Z</time>
      </trkpt>
      <trkpt lat="47.75318" lon="-3.37541">
        <ele>63</ele>
        <time>2015-01-16T12:59:49.497Z</time>
      </trkpt>
      <trkpt lat="47.7532" lon="-3.37544">
        <ele>64</ele>
        <time>2015-01-16T13:02:25.475Z</time>
      </trkpt>
      <trkpt lat="47.75319" lon="-3.37543">
        <ele>64</ele>
        <time>2015-01-16T13:02:26.476Z</time>
      </trkpt>
      <trkpt lat="47.75319" lon="-3.37542">
        <ele>63</ele>
        <time>2015-01-16T13:02:30.477Z</time>
      </trkpt>
      <trkpt lat="47.75319" lon="-3.37544">
        <ele>63</ele>
        <time>2015-01-16T13:02:31.473Z</time>
      </trkpt>
      <trkpt lat="47.75324" lon="-3.37551">
        <ele>64</ele>
        <time>2015-01-16T13:02:34.448Z</time>
      </trkpt>
      <trkpt lat="47.75328" lon="-3.37549">
        <ele>64</ele>
        <time>2015-01-16T13:02:35.470Z</time>
      </trkpt>
      <trkpt lat="47.75332" lon="-3.37538">
        <ele>65</ele>
        <time>2015-01-16T13:02:38.474Z</time>
      </trkpt>
      <trkpt lat="47.75331" lon="-3.37536">
        <ele>65</ele>
        <time>2015-01-16T13:02:39.465Z</time>
      </trkpt>
      <trkpt lat="47.75324" lon="-3.37529">
        <ele>66</ele>
        <time>2015-01-16T13:02:44.480Z</time>
      </trkpt>
      <trkpt lat="47.75323" lon="-3.3753">
        <ele>66</ele>
        <time>2015-01-16T13:02:45.467Z</time>
      </trkpt>
      <trkpt lat="47.75316" lon="-3.37529">
        <ele>66</ele>
        <time>2015-01-16T13:02:48.480Z</time>
      </trkpt>
      <trkpt lat="47.75313" lon="-3.37532">
        <ele>66</ele>
        <time>2015-01-16T13:02:49.482Z</time>
      </trkpt>
      <trkpt lat="47.75312" lon="-3.37538">
        <ele>66</ele>
        <time>2015-01-16T13:02:50.495Z</time>
      </trkpt>
      <trkpt lat="47.75311" lon="-3.37545">
        <ele>65</ele>
        <time>2015-01-16T13:02:51.484Z</time>
      </trkpt>
      <trkpt lat="47.7531" lon="-3.37555">
        <ele>66</ele>
        <time>2015-01-16T13:02:52.488Z</time>
      </trkpt>
      <trkpt lat="47.75309" lon="-3.37567">
        <ele>66</ele>
        <time>2015-01-16T13:02:53.457Z</time>
      </trkpt>
      <trkpt lat="47.75305" lon="-3.37582">
        <ele>65</ele>
        <time>2015-01-16T13:02:54.462Z</time>
      </trkpt>
      <trkpt lat="47.75298" lon="-3.376">
        <ele>65</ele>
        <time>2015-01-16T13:02:55.465Z</time>
      </trkpt>
      <trkpt lat="47.75293" lon="-3.37618">
        <ele>65</ele>
        <time>2015-01-16T13:02:56.472Z</time>
      </trkpt>
      <trkpt lat="47.75288" lon="-3.37634">
        <ele>64</ele>
        <time>2015-01-16T13:02:57.461Z</time>
      </trkpt>
      <trkpt lat="47.75283" lon="-3.37648">
        <ele>64</ele>
        <time>2015-01-16T13:02:58.472Z</time>
      </trkpt>
      <trkpt lat="47.75279" lon="-3.37661">
        <ele>63</ele>
        <time>2015-01-16T13:02:59.471Z</time>
      </trkpt>
      <trkpt lat="47.75276" lon="-3.37671">
        <ele>63</ele>
        <time>2015-01-16T13:03:00.484Z</time>
      </trkpt>
      <trkpt lat="47.75273" lon="-3.3768">
        <ele>63</ele>
        <time>2015-01-16T13:03:01.466Z</time>
      </trkpt>
      <trkpt lat="47.75271" lon="-3.37688">
        <ele>63</ele>
        <time>2015-01-16T13:03:02.474Z</time>
      </trkpt>
      <trkpt lat="47.75271" lon="-3.37693">
        <ele>63</ele>
        <time>2015-01-16T13:03:03.482Z</time>
      </trkpt>
      <trkpt lat="47.75277" lon="-3.37702">
        <ele>64</ele>
        <time>2015-01-16T13:03:05.454Z</time>
      </trkpt>
      <trkpt lat="47.75283" lon="-3.37706">
        <ele>63</ele>
        <time>2015-01-16T13:03:06.485Z</time>
      </trkpt>
      <trkpt lat="47.7529" lon="-3.37709">
        <ele>63</ele>
        <time>2015-01-16T13:03:07.492Z</time>
      </trkpt>
      <trkpt lat="47.75295" lon="-3.37713">
        <ele>63</ele>
        <time>2015-01-16T13:03:08.491Z</time>
      </trkpt>
      <trkpt lat="47.75302" lon="-3.37719">
        <ele>63</ele>
        <time>2015-01-16T13:03:10.501Z</time>
      </trkpt>
      <trkpt lat="47.75303" lon="-3.37721">
        <ele>63</ele>
        <time>2015-01-16T13:03:11.518Z</time>
      </trkpt>
      <trkpt lat="47.75303" lon="-3.37722">
        <ele>64</ele>
        <time>2015-01-16T13:03:12.490Z</time>
      </trkpt>
      <trkpt lat="47.75303" lon="-3.37722">
        <ele>64</ele>
        <time>2015-01-16T13:03:13.484Z</time>
      </trkpt>
      <trkpt lat="47.75303" lon="-3.37723">
        <ele>64</ele>
        <time>2015-01-16T13:03:14.489Z</time>
      </trkpt>
      <trkpt lat="47.75304" lon="-3.37725">
        <ele>65</ele>
        <time>2015-01-16T13:03:15.484Z</time>
      </trkpt>
      <trkpt lat="47.75302" lon="-3.37736">
        <ele>64</ele>
        <time>2015-01-16T13:03:18.469Z</time>
      </trkpt>
      <trkpt lat="47.75301" lon="-3.3774">
        <ele>64</ele>
        <time>2015-01-16T13:03:19.470Z</time>
      </trkpt>
      <trkpt lat="47.75295" lon="-3.37749">
        <ele>65</ele>
        <time>2015-01-16T13:03:24.476Z</time>
      </trkpt>
      <trkpt lat="47.75295" lon="-3.3775">
        <ele>64</ele>
        <time>2015-01-16T13:03:25.458Z</time>
      </trkpt>
      <trkpt lat="47.75293" lon="-3.37752">
        <ele>64</ele>
        <time>2015-01-16T13:03:28.491Z</time>
      </trkpt>
      <trkpt lat="47.75293" lon="-3.37752">
        <ele>64</ele>
        <time>2015-01-16T13:03:29.488Z</time>
      </trkpt>
      <trkpt lat="47.75294" lon="-3.3775">
        <ele>63</ele>
        <time>2015-01-16T13:05:20.456Z</time>
      </trkpt>
      <trkpt lat="47.75294" lon="-3.3775">
        <ele>63</ele>
        <time>2015-01-16T13:05:21.470Z</time>
      </trkpt>
      <trkpt lat="47.75286" lon="-3.37749">
        <ele>63</ele>
        <time>2015-01-16T13:05:37.487Z</time>
      </trkpt>
      <trkpt lat="47.75283" lon="-3.3775">
        <ele>63</ele>
        <time>2015-01-16T13:05:38.491Z</time>
      </trkpt>
      <trkpt lat="47.75276" lon="-3.37747">
        <ele>63</ele>
        <time>2015-01-16T13:05:45.470Z</time>
      </trkpt>
      <trkpt lat="47.75276" lon="-3.37747">
        <ele>63</ele>
        <time>2015-01-16T13:05:46.470Z</time>
      </trkpt>
      <trkpt lat="47.75275" lon="-3.3775">
        <ele>62</ele>
        <time>2015-01-16T13:06:04.450Z</time>
      </trkpt>
      <trkpt lat="47.75274" lon="-3.37749">
        <ele>62</ele>
        <time>2015-01-16T13:06:05.447Z</time>
      </trkpt>
      <trkpt lat="47.75273" lon="-3.37749">
        <ele>63</ele>
        <time>2015-01-16T13:06:11.453Z</time>
      </trkpt>
      <trkpt lat="47.75273" lon="-3.37749">
        <ele>62</ele>
        <time>2015-01-16T13:06:12.456Z</time>
      </trkpt>
      <trkpt lat="47.75272" lon="-3.37747">
        <ele>63</ele>
        <time>2015-01-16T13:06:43.474Z</time>
      </trkpt>
      <trkpt lat="47.75272" lon="-3.37747">
        <ele>63</ele>
        <time>2015-01-16T13:06:44.497Z</time>
      </trkpt>
      <trkpt lat="47.75272" lon="-3.37747">
        <ele>63</ele>
        <time>2015-01-16T13:06:45.467Z</time>
      </trkpt>
      <trkpt lat="47.75271" lon="-3.37747">
        <ele>63</ele>
        <time>2015-01-16T13:06:52.472Z</time>
      </trkpt>
      <trkpt lat="47.75271" lon="-3.37747">
        <ele>63</ele>
        <time>2015-01-16T13:06:53.478Z</time>
      </trkpt>
      <trkpt lat="47.75263" lon="-3.37743">
        <ele>63</ele>
        <time>2015-01-16T13:06:57.470Z</time>
      </trkpt>
      <trkpt lat="47.75259" lon="-3.37742">
        <ele>63</ele>
        <time>2015-01-16T13:06:58.472Z</time>
      </trkpt>
      <trkpt lat="47.75254" lon="-3.37744">
        <ele>63</ele>
        <time>2015-01-16T13:06:59.484Z</time>
      </trkpt>
      <trkpt lat="47.75251" lon="-3.37748">
        <ele>63</ele>
        <time>2015-01-16T13:07:00.587Z</time>
      </trkpt>
      <trkpt lat="47.75248" lon="-3.37755">
        <ele>63</ele>
        <time>2015-01-16T13:07:01.490Z</time>
      </trkpt>
      <trkpt lat="47.75246" lon="-3.37764">
        <ele>63</ele>
        <time>2015-01-16T13:07:02.501Z</time>
      </trkpt>
      <trkpt lat="47.75244" lon="-3.37775">
        <ele>63</ele>
        <time>2015-01-16T13:07:03.486Z</time>
      </trkpt>
      <trkpt lat="47.7524" lon="-3.37787">
        <ele>64</ele>
        <time>2015-01-16T13:07:04.484Z</time>
      </trkpt>
      <trkpt lat="47.75236" lon="-3.378">
        <ele>64</ele>
        <time>2015-01-16T13:07:05.485Z</time>
      </trkpt>
      <trkpt lat="47.75233" lon="-3.37813">
        <ele>65</ele>
        <time>2015-01-16T13:07:06.497Z</time>
      </trkpt>
      <trkpt lat="47.75228" lon="-3.37826">
        <ele>65</ele>
        <time>2015-01-16T13:07:07.489Z</time>
      </trkpt>
      <trkpt lat="47.75225" lon="-3.37838">
        <ele>65</ele>
        <time>2015-01-16T13:07:08.494Z</time>
      </trkpt>
      <trkpt lat="47.75221" lon="-3.37851">
        <ele>66</ele>
        <time>2015-01-16T13:07:09.490Z</time>
      </trkpt>
      <trkpt lat="47.75217" lon="-3.37864">
        <ele>66</ele>
        <time>2015-01-16T13:07:10.507Z</time>
      </trkpt>
      <trkpt lat="47.75214" lon="-3.37879">
        <ele>67</ele>
        <time>2015-01-16T13:07:11.490Z</time>
      </trkpt>
      <trkpt lat="47.75211" lon="-3.37895">
        <ele>68</ele>
        <time>2015-01-16T13:07:12.495Z</time>
      </trkpt>
      <trkpt lat="47.75209" lon="-3.37913">
        <ele>69</ele>
        <time>2015-01-16T13:07:13.482Z</time>
      </trkpt>
      <trkpt lat="47.75208" lon="-3.37932">
        <ele>69</ele>
        <time>2015-01-16T13:07:14.485Z</time>
      </trkpt>
      <trkpt lat="47.75207" lon="-3.37949">
        <ele>70</ele>
        <time>2015-01-16T13:07:15.487Z</time>
      </trkpt>
      <trkpt lat="47.75208" lon="-3.37965">
        <ele>70</ele>
        <time>2015-01-16T13:07:16.488Z</time>
      </trkpt>
      <trkpt lat="47.75209" lon="-3.37981">
        <ele>70</ele>
        <time>2015-01-16T13:07:17.489Z</time>
      </trkpt>
      <trkpt lat="47.7521" lon="-3.37997">
        <ele>70</ele>
        <time>2015-01-16T13:07:18.496Z</time>
      </trkpt>
      <trkpt lat="47.75213" lon="-3.38013">
        <ele>70</ele>
        <time>2015-01-16T13:07:19.469Z</time>
      </trkpt>
      <trkpt lat="47.75217" lon="-3.38029">
        <ele>71</ele>
        <time>2015-01-16T13:07:20.463Z</time>
      </trkpt>
      <trkpt lat="47.75222" lon="-3.38044">
        <ele>71</ele>
        <time>2015-01-16T13:07:21.461Z</time>
      </trkpt>
      <trkpt lat="47.75227" lon="-3.38059">
        <ele>71</ele>
        <time>2015-01-16T13:07:22.482Z</time>
      </trkpt>
      <trkpt lat="47.75233" lon="-3.38073">
        <ele>71</ele>
        <time>2015-01-16T13:07:23.484Z</time>
      </trkpt>
      <trkpt lat="47.75239" lon="-3.38088">
        <ele>71</ele>
        <time>2015-01-16T13:07:24.485Z</time>
      </trkpt>
      <trkpt lat="47.75245" lon="-3.38102">
        <ele>72</ele>
        <time>2015-01-16T13:07:25.476Z</time>
      </trkpt>
      <trkpt lat="47.75252" lon="-3.38116">
        <ele>72</ele>
        <time>2015-01-16T13:07:26.477Z</time>
      </trkpt>
      <trkpt lat="47.75259" lon="-3.38131">
        <ele>72</ele>
        <time>2015-01-16T13:07:27.470Z</time>
      </trkpt>
      <trkpt lat="47.75265" lon="-3.38147">
        <ele>72</ele>
        <time>2015-01-16T13:07:28.509Z</time>
      </trkpt>
      <trkpt lat="47.75272" lon="-3.38162">
        <ele>72</ele>
        <time>2015-01-16T13:07:29.476Z</time>
      </trkpt>
      <trkpt lat="47.75278" lon="-3.38176">
        <ele>72</ele>
        <time>2015-01-16T13:07:30.485Z</time>
      </trkpt>
      <trkpt lat="47.75285" lon="-3.38191">
        <ele>72</ele>
        <time>2015-01-16T13:07:31.494Z</time>
      </trkpt>
      <trkpt lat="47.75292" lon="-3.38205">
        <ele>72</ele>
        <time>2015-01-16T13:07:32.496Z</time>
      </trkpt>
      <trkpt lat="47.75298" lon="-3.38219">
        <ele>72</ele>
        <time>2015-01-16T13:07:33.489Z</time>
      </trkpt>
      <trkpt lat="47.75305" lon="-3.38233">
        <ele>72</ele>
        <time>2015-01-16T13:07:34.485Z</time>
      </trkpt>
      <trkpt lat="47.75311" lon="-3.38248">
        <ele>72</ele>
        <time>2015-01-16T13:07:35.493Z</time>
      </trkpt>
      <trkpt lat="47.75319" lon="-3.38261">
        <ele>72</ele>
        <time>2015-01-16T13:07:36.494Z</time>
      </trkpt>
      <trkpt lat="47.75327" lon="-3.38275">
        <ele>71</ele>
        <time>2015-01-16T13:07:37.490Z</time>
      </trkpt>
      <trkpt lat="47.75336" lon="-3.38287">
        <ele>71</ele>
        <time>2015-01-16T13:07:38.491Z</time>
      </trkpt>
      <trkpt lat="47.75345" lon="-3.38298">
        <ele>72</ele>
        <time>2015-01-16T13:07:39.472Z</time>
      </trkpt>
      <trkpt lat="47.75354" lon="-3.38307">
        <ele>72</ele>
        <time>2015-01-16T13:07:40.494Z</time>
      </trkpt>
      <trkpt lat="47.75365" lon="-3.38316">
        <ele>72</ele>
        <time>2015-01-16T13:07:41.495Z</time>
      </trkpt>
      <trkpt lat="47.75375" lon="-3.38322">
        <ele>72</ele>
        <time>2015-01-16T13:07:42.512Z</time>
      </trkpt>
      <trkpt lat="47.75384" lon="-3.38328">
        <ele>72</ele>
        <time>2015-01-16T13:07:43.490Z</time>
      </trkpt>
      <trkpt lat="47.75393" lon="-3.38332">
        <ele>73</ele>
        <time>2015-01-16T13:07:44.483Z</time>
      </trkpt>
      <trkpt lat="47.754" lon="-3.38336">
        <ele>73</ele>
        <time>2015-01-16T13:07:45.490Z</time>
      </trkpt>
      <trkpt lat="47.75407" lon="-3.38339">
        <ele>73</ele>
        <time>2015-01-16T13:07:46.490Z</time>
      </trkpt>
      <trkpt lat="47.75414" lon="-3.3834">
        <ele>73</ele>
        <time>2015-01-16T13:07:47.492Z</time>
      </trkpt>
      <trkpt lat="47.75421" lon="-3.38338">
        <ele>73</ele>
        <time>2015-01-16T13:07:48.485Z</time>
      </trkpt>
      <trkpt lat="47.75429" lon="-3.38337">
        <ele>74</ele>
        <time>2015-01-16T13:07:49.464Z</time>
      </trkpt>
      <trkpt lat="47.75437" lon="-3.38336">
        <ele>74</ele>
        <time>2015-01-16T13:07:50.491Z</time>
      </trkpt>
      <trkpt lat="47.75444" lon="-3.38336">
        <ele>74</ele>
        <time>2015-01-16T13:07:51.457Z</time>
      </trkpt>
      <trkpt lat="47.75453" lon="-3.38337">
        <ele>75</ele>
        <time>2015-01-16T13:07:52.457Z</time>
      </trkpt>
      <trkpt lat="47.7546" lon="-3.38338">
        <ele>74</ele>
        <time>2015-01-16T13:07:53.474Z</time>
      </trkpt>
      <trkpt lat="47.75467" lon="-3.3834">
        <ele>74</ele>
        <time>2015-01-16T13:07:54.466Z</time>
      </trkpt>
      <trkpt lat="47.75474" lon="-3.38343">
        <ele>74</ele>
        <time>2015-01-16T13:07:55.471Z</time>
      </trkpt>
      <trkpt lat="47.7548" lon="-3.38345">
        <ele>74</ele>
        <time>2015-01-16T13:07:56.471Z</time>
      </trkpt>
      <trkpt lat="47.75486" lon="-3.38348">
        <ele>74</ele>
        <time>2015-01-16T13:07:57.468Z</time>
      </trkpt>
      <trkpt lat="47.75492" lon="-3.38352">
        <ele>74</ele>
        <time>2015-01-16T13:07:58.486Z</time>
      </trkpt>
      <trkpt lat="47.75497" lon="-3.38356">
        <ele>74</ele>
        <time>2015-01-16T13:07:59.478Z</time>
      </trkpt>
      <trkpt lat="47.75503" lon="-3.3836">
        <ele>75</ele>
        <time>2015-01-16T13:08:00.473Z</time>
      </trkpt>
      <trkpt lat="47.75508" lon="-3.38365">
        <ele>75</ele>
        <time>2015-01-16T13:08:01.473Z</time>
      </trkpt>
      <trkpt lat="47.75514" lon="-3.38369">
        <ele>75</ele>
        <time>2015-01-16T13:08:02.459Z</time>
      </trkpt>
      <trkpt lat="47.7552" lon="-3.38374">
        <ele>75</ele>
        <time>2015-01-16T13:08:03.467Z</time>
      </trkpt>
      <trkpt lat="47.75527" lon="-3.38378">
        <ele>75</ele>
        <time>2015-01-16T13:08:04.489Z</time>
      </trkpt>
      <trkpt lat="47.75533" lon="-3.38383">
        <ele>75</ele>
        <time>2015-01-16T13:08:05.481Z</time>
      </trkpt>
      <trkpt lat="47.75539" lon="-3.38388">
        <ele>75</ele>
        <time>2015-01-16T13:08:06.486Z</time>
      </trkpt>
      <trkpt lat="47.75545" lon="-3.38393">
        <ele>75</ele>
        <time>2015-01-16T13:08:07.483Z</time>
      </trkpt>
      <trkpt lat="47.75551" lon="-3.38398">
        <ele>75</ele>
        <time>2015-01-16T13:08:08.491Z</time>
      </trkpt>
      <trkpt lat="47.75558" lon="-3.38404">
        <ele>75</ele>
        <time>2015-01-16T13:08:10.485Z</time>
      </trkpt>
      <trkpt lat="47.75561" lon="-3.38405">
        <ele>76</ele>
        <time>2015-01-16T13:08:11.466Z</time>
      </trkpt>
      <trkpt lat="47.75567" lon="-3.3841">
        <ele>76</ele>
        <time>2015-01-16T13:08:13.467Z</time>
      </trkpt>
      <trkpt lat="47.75571" lon="-3.38414">
        <ele>76</ele>
        <time>2015-01-16T13:08:14.468Z</time>
      </trkpt>
      <trkpt lat="47.75575" lon="-3.38417">
        <ele>76</ele>
        <time>2015-01-16T13:08:15.463Z</time>
      </trkpt>
      <trkpt lat="47.75579" lon="-3.3842">
        <ele>76</ele>
        <time>2015-01-16T13:08:16.465Z</time>
      </trkpt>
      <trkpt lat="47.75584" lon="-3.38423">
        <ele>76</ele>
        <time>2015-01-16T13:08:17.472Z</time>
      </trkpt>
      <trkpt lat="47.75589" lon="-3.38427">
        <ele>75</ele>
        <time>2015-01-16T13:08:18.467Z</time>
      </trkpt>
      <trkpt lat="47.75595" lon="-3.38427">
        <ele>71</ele>
        <time>2015-01-16T13:08:19.468Z</time>
      </trkpt>
      <trkpt lat="47.75602" lon="-3.38425">
        <ele>73</ele>
        <time>2015-01-16T13:08:20.468Z</time>
      </trkpt>
      <trkpt lat="47.75609" lon="-3.3842">
        <ele>73</ele>
        <time>2015-01-16T13:08:21.464Z</time>
      </trkpt>
      <trkpt lat="47.75616" lon="-3.38415">
        <ele>74</ele>
        <time>2015-01-16T13:08:22.460Z</time>
      </trkpt>
      <trkpt lat="47.75624" lon="-3.38413">
        <ele>74</ele>
        <time>2015-01-16T13:08:23.469Z</time>
      </trkpt>
      <trkpt lat="47.75633" lon="-3.38415">
        <ele>74</ele>
        <time>2015-01-16T13:08:24.474Z</time>
      </trkpt>
      <trkpt lat="47.75641" lon="-3.3842">
        <ele>74</ele>
        <time>2015-01-16T13:08:25.470Z</time>
      </trkpt>
      <trkpt lat="47.75649" lon="-3.38428">
        <ele>74</ele>
        <time>2015-01-16T13:08:26.464Z</time>
      </trkpt>
      <trkpt lat="47.75656" lon="-3.38435">
        <ele>74</ele>
        <time>2015-01-16T13:08:27.464Z</time>
      </trkpt>
      <trkpt lat="47.75665" lon="-3.3844">
        <ele>75</ele>
        <time>2015-01-16T13:08:28.474Z</time>
      </trkpt>
      <trkpt lat="47.75674" lon="-3.38445">
        <ele>75</ele>
        <time>2015-01-16T13:08:29.486Z</time>
      </trkpt>
      <trkpt lat="47.75685" lon="-3.3845">
        <ele>75</ele>
        <time>2015-01-16T13:08:30.484Z</time>
      </trkpt>
      <trkpt lat="47.75695" lon="-3.38454">
        <ele>75</ele>
        <time>2015-01-16T13:08:31.483Z</time>
      </trkpt>
      <trkpt lat="47.75706" lon="-3.38459">
        <ele>75</ele>
        <time>2015-01-16T13:08:32.560Z</time>
      </trkpt>
      <trkpt lat="47.75717" lon="-3.38463">
        <ele>76</ele>
        <time>2015-01-16T13:08:33.478Z</time>
      </trkpt>
      <trkpt lat="47.7573" lon="-3.38468">
        <ele>75</ele>
        <time>2015-01-16T13:08:34.503Z</time>
      </trkpt>
      <trkpt lat="47.75742" lon="-3.38472">
        <ele>75</ele>
        <time>2015-01-16T13:08:35.503Z</time>
      </trkpt>
      <trkpt lat="47.75755" lon="-3.38475">
        <ele>75</ele>
        <time>2015-01-16T13:08:36.478Z</time>
      </trkpt>
      <trkpt lat="47.75769" lon="-3.38476">
        <ele>74</ele>
        <time>2015-01-16T13:08:37.491Z</time>
      </trkpt>
      <trkpt lat="47.75783" lon="-3.38475">
        <ele>74</ele>
        <time>2015-01-16T13:08:38.478Z</time>
      </trkpt>
      <trkpt lat="47.75797" lon="-3.3847">
        <ele>73</ele>
        <time>2015-01-16T13:08:39.492Z</time>
      </trkpt>
      <trkpt lat="47.75811" lon="-3.38462">
        <ele>73</ele>
        <time>2015-01-16T13:08:40.502Z</time>
      </trkpt>
      <trkpt lat="47.75825" lon="-3.38453">
        <ele>73</ele>
        <time>2015-01-16T13:08:41.523Z</time>
      </trkpt>
      <trkpt lat="47.7584" lon="-3.38442">
        <ele>73</ele>
        <time>2015-01-16T13:08:42.474Z</time>
      </trkpt>
      <trkpt lat="47.75855" lon="-3.3843">
        <ele>72</ele>
        <time>2015-01-16T13:08:43.487Z</time>
      </trkpt>
      <trkpt lat="47.75871" lon="-3.38418">
        <ele>72</ele>
        <time>2015-01-16T13:08:44.485Z</time>
      </trkpt>
      <trkpt lat="47.75886" lon="-3.38406">
        <ele>73</ele>
        <time>2015-01-16T13:08:45.501Z</time>
      </trkpt>
      <trkpt lat="47.75903" lon="-3.38394">
        <ele>73</ele>
        <time>2015-01-16T13:08:46.473Z</time>
      </trkpt>
      <trkpt lat="47.7592" lon="-3.38383">
        <ele>73</ele>
        <time>2015-01-16T13:08:47.464Z</time>
      </trkpt>
      <trkpt lat="47.75937" lon="-3.38371">
        <ele>74</ele>
        <time>2015-01-16T13:08:48.455Z</time>
      </trkpt>
      <trkpt lat="47.75956" lon="-3.38357">
        <ele>74</ele>
        <time>2015-01-16T13:08:49.473Z</time>
      </trkpt>
      <trkpt lat="47.75975" lon="-3.38345">
        <ele>74</ele>
        <time>2015-01-16T13:08:50.474Z</time>
      </trkpt>
      <trkpt lat="47.75993" lon="-3.38332">
        <ele>74</ele>
        <time>2015-01-16T13:08:51.471Z</time>
      </trkpt>
      <trkpt lat="47.76012" lon="-3.3832">
        <ele>74</ele>
        <time>2015-01-16T13:08:52.462Z</time>
      </trkpt>
      <trkpt lat="47.76031" lon="-3.38309">
        <ele>74</ele>
        <time>2015-01-16T13:08:53.473Z</time>
      </trkpt>
      <trkpt lat="47.76048" lon="-3.38298">
        <ele>74</ele>
        <time>2015-01-16T13:08:54.465Z</time>
      </trkpt>
      <trkpt lat="47.76067" lon="-3.38286">
        <ele>74</ele>
        <time>2015-01-16T13:08:55.472Z</time>
      </trkpt>
      <trkpt lat="47.76086" lon="-3.38273">
        <ele>74</ele>
        <time>2015-01-16T13:08:56.463Z</time>
      </trkpt>
      <trkpt lat="47.76105" lon="-3.3826">
        <ele>74</ele>
        <time>2015-01-16T13:08:57.463Z</time>
      </trkpt>
      <trkpt lat="47.76124" lon="-3.38245">
        <ele>74</ele>
        <time>2015-01-16T13:08:58.462Z</time>
      </trkpt>
      <trkpt lat="47.76143" lon="-3.38229">
        <ele>73</ele>
        <time>2015-01-16T13:08:59.469Z</time>
      </trkpt>
      <trkpt lat="47.76163" lon="-3.38212">
        <ele>72</ele>
        <time>2015-01-16T13:09:00.463Z</time>
      </trkpt>
      <trkpt lat="47.76182" lon="-3.38195">
        <ele>72</ele>
        <time>2015-01-16T13:09:01.473Z</time>
      </trkpt>
      <trkpt lat="47.762" lon="-3.38178">
        <ele>71</ele>
        <time>2015-01-16T13:09:02.472Z</time>
      </trkpt>
      <trkpt lat="47.76218" lon="-3.38162">
        <ele>70</ele>
        <time>2015-01-16T13:09:03.483Z</time>
      </trkpt>
      <trkpt lat="47.76235" lon="-3.38145">
        <ele>70</ele>
        <time>2015-01-16T13:09:04.471Z</time>
      </trkpt>
      <trkpt lat="47.76253" lon="-3.38129">
        <ele>69</ele>
        <time>2015-01-16T13:09:05.460Z</time>
      </trkpt>
      <trkpt lat="47.76269" lon="-3.38113">
        <ele>68</ele>
        <time>2015-01-16T13:09:06.460Z</time>
      </trkpt>
      <trkpt lat="47.76286" lon="-3.38097">
        <ele>68</ele>
        <time>2015-01-16T13:09:07.482Z</time>
      </trkpt>
      <trkpt lat="47.76303" lon="-3.3808">
        <ele>67</ele>
        <time>2015-01-16T13:09:08.461Z</time>
      </trkpt>
      <trkpt lat="47.76321" lon="-3.38063">
        <ele>67</ele>
        <time>2015-01-16T13:09:09.475Z</time>
      </trkpt>
      <trkpt lat="47.76339" lon="-3.38045">
        <ele>66</ele>
        <time>2015-01-16T13:09:10.487Z</time>
      </trkpt>
      <trkpt lat="47.76356" lon="-3.38028">
        <ele>66</ele>
        <time>2015-01-16T13:09:11.474Z</time>
      </trkpt>
      <trkpt lat="47.76374" lon="-3.38012">
        <ele>65</ele>
        <time>2015-01-16T13:09:12.484Z</time>
      </trkpt>
      <trkpt lat="47.76391" lon="-3.37994">
        <ele>65</ele>
        <time>2015-01-16T13:09:13.500Z</time>
      </trkpt>
      <trkpt lat="47.7641" lon="-3.3798">
        <ele>65</ele>
        <time>2015-01-16T13:09:14.484Z</time>
      </trkpt>
      <trkpt lat="47.7641" lon="-3.3798">
        <ele>65</ele>
        <time>2015-01-16T13:09:15.448Z</time>
      </trkpt>
      <trkpt lat="47.76427" lon="-3.37967">
        <ele>64</ele>
        <time>2015-01-16T13:09:15.510Z</time>
      </trkpt>
      <trkpt lat="47.76445" lon="-3.37952">
        <ele>65</ele>
        <time>2015-01-16T13:09:16.463Z</time>
      </trkpt>
      <trkpt lat="47.76445" lon="-3.37952">
        <ele>65</ele>
        <time>2015-01-16T13:09:17.219Z</time>
      </trkpt>
      <trkpt lat="47.76464" lon="-3.3794">
        <ele>64</ele>
        <time>2015-01-16T13:09:17.470Z</time>
      </trkpt>
      <trkpt lat="47.76482" lon="-3.37928">
        <ele>64</ele>
        <time>2015-01-16T13:09:18.463Z</time>
      </trkpt>
      <trkpt lat="47.76501" lon="-3.37917">
        <ele>64</ele>
        <time>2015-01-16T13:09:19.464Z</time>
      </trkpt>
      <trkpt lat="47.76519" lon="-3.37907">
        <ele>64</ele>
        <time>2015-01-16T13:09:20.472Z</time>
      </trkpt>
      <trkpt lat="47.76538" lon="-3.37897">
        <ele>63</ele>
        <time>2015-01-16T13:09:21.475Z</time>
      </trkpt>
      <trkpt lat="47.76558" lon="-3.37887">
        <ele>63</ele>
        <time>2015-01-16T13:09:22.454Z</time>
      </trkpt>
      <trkpt lat="47.76577" lon="-3.37879">
        <ele>63</ele>
        <time>2015-01-16T13:09:23.479Z</time>
      </trkpt>
      <trkpt lat="47.76598" lon="-3.37871">
        <ele>62</ele>
        <time>2015-01-16T13:09:24.460Z</time>
      </trkpt>
      <trkpt lat="47.76618" lon="-3.37864">
        <ele>62</ele>
        <time>2015-01-16T13:09:25.462Z</time>
      </trkpt>
      <trkpt lat="47.76638" lon="-3.37858">
        <ele>62</ele>
        <time>2015-01-16T13:09:26.474Z</time>
      </trkpt>
      <trkpt lat="47.76658" lon="-3.37852">
        <ele>62</ele>
        <time>2015-01-16T13:09:27.467Z</time>
      </trkpt>
      <trkpt lat="47.76678" lon="-3.37848">
        <ele>61</ele>
        <time>2015-01-16T13:09:28.476Z</time>
      </trkpt>
      <trkpt lat="47.76697" lon="-3.37843">
        <ele>61</ele>
        <time>2015-01-16T13:09:29.491Z</time>
      </trkpt>
      <trkpt lat="47.76717" lon="-3.37839">
        <ele>60</ele>
        <time>2015-01-16T13:09:30.488Z</time>
      </trkpt>
      <trkpt lat="47.76736" lon="-3.37835">
        <ele>60</ele>
        <time>2015-01-16T13:09:31.489Z</time>
      </trkpt>
      <trkpt lat="47.76756" lon="-3.37832">
        <ele>59</ele>
        <time>2015-01-16T13:09:32.493Z</time>
      </trkpt>
      <trkpt lat="47.76775" lon="-3.3783">
        <ele>58</ele>
        <time>2015-01-16T13:09:33.497Z</time>
      </trkpt>
      <trkpt lat="47.76795" lon="-3.37828">
        <ele>58</ele>
        <time>2015-01-16T13:09:34.489Z</time>
      </trkpt>
      <trkpt lat="47.76815" lon="-3.37827">
        <ele>58</ele>
        <time>2015-01-16T13:09:35.502Z</time>
      </trkpt>
      <trkpt lat="47.76834" lon="-3.37828">
        <ele>58</ele>
        <time>2015-01-16T13:09:36.480Z</time>
      </trkpt>
      <trkpt lat="47.76853" lon="-3.37829">
        <ele>57</ele>
        <time>2015-01-16T13:09:37.480Z</time>
      </trkpt>
      <trkpt lat="47.76872" lon="-3.37831">
        <ele>57</ele>
        <time>2015-01-16T13:09:38.503Z</time>
      </trkpt>
      <trkpt lat="47.76891" lon="-3.37834">
        <ele>57</ele>
        <time>2015-01-16T13:09:39.484Z</time>
      </trkpt>
      <trkpt lat="47.7691" lon="-3.37837">
        <ele>57</ele>
        <time>2015-01-16T13:09:40.491Z</time>
      </trkpt>
      <trkpt lat="47.76927" lon="-3.3784">
        <ele>56</ele>
        <time>2015-01-16T13:09:41.495Z</time>
      </trkpt>
      <trkpt lat="47.76945" lon="-3.37843">
        <ele>56</ele>
        <time>2015-01-16T13:09:42.480Z</time>
      </trkpt>
      <trkpt lat="47.76962" lon="-3.37847">
        <ele>55</ele>
        <time>2015-01-16T13:09:43.486Z</time>
      </trkpt>
      <trkpt lat="47.76978" lon="-3.37851">
        <ele>55</ele>
        <time>2015-01-16T13:09:44.491Z</time>
      </trkpt>
      <trkpt lat="47.76995" lon="-3.37855">
        <ele>55</ele>
        <time>2015-01-16T13:09:45.490Z</time>
      </trkpt>
      <trkpt lat="47.77012" lon="-3.37857">
        <ele>54</ele>
        <time>2015-01-16T13:09:46.469Z</time>
      </trkpt>
      <trkpt lat="47.77029" lon="-3.37857">
        <ele>53</ele>
        <time>2015-01-16T13:09:47.461Z</time>
      </trkpt>
      <trkpt lat="47.77045" lon="-3.37853">
        <ele>53</ele>
        <time>2015-01-16T13:09:48.478Z</time>
      </trkpt>
      <trkpt lat="47.77061" lon="-3.37847">
        <ele>52</ele>
        <time>2015-01-16T13:09:49.471Z</time>
      </trkpt>
      <trkpt lat="47.77075" lon="-3.37838">
        <ele>52</ele>
        <time>2015-01-16T13:09:50.473Z</time>
      </trkpt>
      <trkpt lat="47.77089" lon="-3.37825">
        <ele>52</ele>
        <time>2015-01-16T13:09:51.475Z</time>
      </trkpt>
      <trkpt lat="47.771" lon="-3.37809">
        <ele>52</ele>
        <time>2015-01-16T13:09:52.468Z</time>
      </trkpt>
      <trkpt lat="47.7711" lon="-3.37792">
        <ele>52</ele>
        <time>2015-01-16T13:09:53.483Z</time>
      </trkpt>
      <trkpt lat="47.77118" lon="-3.37772">
        <ele>52</ele>
        <time>2015-01-16T13:09:54.480Z</time>
      </trkpt>
      <trkpt lat="47.77125" lon="-3.37749">
        <ele>52</ele>
        <time>2015-01-16T13:09:55.450Z</time>
      </trkpt>
      <trkpt lat="47.77131" lon="-3.37726">
        <ele>52</ele>
        <time>2015-01-16T13:09:56.476Z</time>
      </trkpt>
      <trkpt lat="47.77136" lon="-3.37701">
        <ele>52</ele>
        <time>2015-01-16T13:09:57.488Z</time>
      </trkpt>
      <trkpt lat="47.77141" lon="-3.37677">
        <ele>52</ele>
        <time>2015-01-16T13:09:58.492Z</time>
      </trkpt>
      <trkpt lat="47.77146" lon="-3.37651">
        <ele>52</ele>
        <time>2015-01-16T13:09:59.490Z</time>
      </trkpt>
      <trkpt lat="47.77152" lon="-3.37626">
        <ele>52</ele>
        <time>2015-01-16T13:10:00.491Z</time>
      </trkpt>
      <trkpt lat="47.77158" lon="-3.37599">
        <ele>52</ele>
        <time>2015-01-16T13:10:01.495Z</time>
      </trkpt>
      <trkpt lat="47.77165" lon="-3.37573">
        <ele>53</ele>
        <time>2015-01-16T13:10:02.486Z</time>
      </trkpt>
      <trkpt lat="47.77172" lon="-3.37547">
        <ele>54</ele>
        <time>2015-01-16T13:10:03.486Z</time>
      </trkpt>
      <trkpt lat="47.77179" lon="-3.3752">
        <ele>54</ele>
        <time>2015-01-16T13:10:04.474Z</time>
      </trkpt>
      <trkpt lat="47.77187" lon="-3.37494">
        <ele>53</ele>
        <time>2015-01-16T13:10:05.450Z</time>
      </trkpt>
      <trkpt lat="47.77195" lon="-3.37467">
        <ele>53</ele>
        <time>2015-01-16T13:10:06.454Z</time>
      </trkpt>
      <trkpt lat="47.77204" lon="-3.3744">
        <ele>53</ele>
        <time>2015-01-16T13:10:07.460Z</time>
      </trkpt>
      <trkpt lat="47.77213" lon="-3.37413">
        <ele>53</ele>
        <time>2015-01-16T13:10:08.475Z</time>
      </trkpt>
      <trkpt lat="47.77223" lon="-3.37385">
        <ele>53</ele>
        <time>2015-01-16T13:10:09.485Z</time>
      </trkpt>
      <trkpt lat="47.77232" lon="-3.37357">
        <ele>53</ele>
        <time>2015-01-16T13:10:10.463Z</time>
      </trkpt>
      <trkpt lat="47.77242" lon="-3.3733">
        <ele>53</ele>
        <time>2015-01-16T13:10:11.464Z</time>
      </trkpt>
      <trkpt lat="47.77252" lon="-3.37302">
        <ele>53</ele>
        <time>2015-01-16T13:10:12.460Z</time>
      </trkpt>
      <trkpt lat="47.77261" lon="-3.37273">
        <ele>53</ele>
        <time>2015-01-16T13:10:13.456Z</time>
      </trkpt>
      <trkpt lat="47.77271" lon="-3.37244">
        <ele>53</ele>
        <time>2015-01-16T13:10:14.470Z</time>
      </trkpt>
      <trkpt lat="47.77281" lon="-3.37215">
        <ele>53</ele>
        <time>2015-01-16T13:10:15.471Z</time>
      </trkpt>
      <trkpt lat="47.7729" lon="-3.37185">
        <ele>53</ele>
        <time>2015-01-16T13:10:16.467Z</time>
      </trkpt>
      <trkpt lat="47.77301" lon="-3.37156">
        <ele>54</ele>
        <time>2015-01-16T13:10:17.463Z</time>
      </trkpt>
      <trkpt lat="47.77311" lon="-3.37128">
        <ele>55</ele>
        <time>2015-01-16T13:10:18.463Z</time>
      </trkpt>
      <trkpt lat="47.77321" lon="-3.37099">
        <ele>55</ele>
        <time>2015-01-16T13:10:19.466Z</time>
      </trkpt>
      <trkpt lat="47.77331" lon="-3.37071">
        <ele>56</ele>
        <time>2015-01-16T13:10:20.487Z</time>
      </trkpt>
      <trkpt lat="47.77341" lon="-3.37043">
        <ele>57</ele>
        <time>2015-01-16T13:10:21.480Z</time>
      </trkpt>
      <trkpt lat="47.77351" lon="-3.37013">
        <ele>57</ele>
        <time>2015-01-16T13:10:22.481Z</time>
      </trkpt>
      <trkpt lat="47.77362" lon="-3.36984">
        <ele>58</ele>
        <time>2015-01-16T13:10:23.499Z</time>
      </trkpt>
      <trkpt lat="47.77372" lon="-3.36955">
        <ele>59</ele>
        <time>2015-01-16T13:10:24.494Z</time>
      </trkpt>
      <trkpt lat="47.77382" lon="-3.36926">
        <ele>59</ele>
        <time>2015-01-16T13:10:25.479Z</time>
      </trkpt>
      <trkpt lat="47.77392" lon="-3.36897">
        <ele>59</ele>
        <time>2015-01-16T13:10:26.484Z</time>
      </trkpt>
      <trkpt lat="47.77403" lon="-3.36868">
        <ele>60</ele>
        <time>2015-01-16T13:10:27.482Z</time>
      </trkpt>
      <trkpt lat="47.77413" lon="-3.36839">
        <ele>61</ele>
        <time>2015-01-16T13:10:28.478Z</time>
      </trkpt>
      <trkpt lat="47.77423" lon="-3.3681">
        <ele>61</ele>
        <time>2015-01-16T13:10:29.483Z</time>
      </trkpt>
      <trkpt lat="47.77433" lon="-3.36781">
        <ele>62</ele>
        <time>2015-01-16T13:10:30.481Z</time>
      </trkpt>
      <trkpt lat="47.77444" lon="-3.36753">
        <ele>63</ele>
        <time>2015-01-16T13:10:31.469Z</time>
      </trkpt>
      <trkpt lat="47.77454" lon="-3.36725">
        <ele>64</ele>
        <time>2015-01-16T13:10:32.495Z</time>
      </trkpt>
      <trkpt lat="47.77465" lon="-3.36698">
        <ele>64</ele>
        <time>2015-01-16T13:10:33.488Z</time>
      </trkpt>
      <trkpt lat="47.77475" lon="-3.36671">
        <ele>65</ele>
        <time>2015-01-16T13:10:34.477Z</time>
      </trkpt>
      <trkpt lat="47.77486" lon="-3.36644">
        <ele>65</ele>
        <time>2015-01-16T13:10:35.486Z</time>
      </trkpt>
      <trkpt lat="47.77497" lon="-3.36617">
        <ele>66</ele>
        <time>2015-01-16T13:10:36.485Z</time>
      </trkpt>
      <trkpt lat="47.77508" lon="-3.3659">
        <ele>66</ele>
        <time>2015-01-16T13:10:37.490Z</time>
      </trkpt>
      <trkpt lat="47.77519" lon="-3.36563">
        <ele>66</ele>
        <time>2015-01-16T13:10:38.494Z</time>
      </trkpt>
      <trkpt lat="47.77529" lon="-3.36537">
        <ele>67</ele>
        <time>2015-01-16T13:10:39.489Z</time>
      </trkpt>
      <trkpt lat="47.77539" lon="-3.36511">
        <ele>67</ele>
        <time>2015-01-16T13:10:40.479Z</time>
      </trkpt>
      <trkpt lat="47.77548" lon="-3.36486">
        <ele>67</ele>
        <time>2015-01-16T13:10:41.490Z</time>
      </trkpt>
      <trkpt lat="47.77558" lon="-3.36462">
        <ele>67</ele>
        <time>2015-01-16T13:10:42.509Z</time>
      </trkpt>
      <trkpt lat="47.77567" lon="-3.36437">
        <ele>68</ele>
        <time>2015-01-16T13:10:43.482Z</time>
      </trkpt>
      <trkpt lat="47.77577" lon="-3.36412">
        <ele>68</ele>
        <time>2015-01-16T13:10:44.512Z</time>
      </trkpt>
      <trkpt lat="47.77586" lon="-3.36386">
        <ele>68</ele>
        <time>2015-01-16T13:10:45.489Z</time>
      </trkpt>
      <trkpt lat="47.77596" lon="-3.36361">
        <ele>68</ele>
        <time>2015-01-16T13:10:46.486Z</time>
      </trkpt>
      <trkpt lat="47.77604" lon="-3.36336">
        <ele>68</ele>
        <time>2015-01-16T13:10:47.504Z</time>
      </trkpt>
      <trkpt lat="47.77613" lon="-3.36311">
        <ele>67</ele>
        <time>2015-01-16T13:10:48.488Z</time>
      </trkpt>
      <trkpt lat="47.77621" lon="-3.36287">
        <ele>67</ele>
        <time>2015-01-16T13:10:49.484Z</time>
      </trkpt>
      <trkpt lat="47.7763" lon="-3.36262">
        <ele>66</ele>
        <time>2015-01-16T13:10:50.478Z</time>
      </trkpt>
      <trkpt lat="47.77637" lon="-3.36237">
        <ele>66</ele>
        <time>2015-01-16T13:10:51.503Z</time>
      </trkpt>
      <trkpt lat="47.77645" lon="-3.36214">
        <ele>65</ele>
        <time>2015-01-16T13:10:52.503Z</time>
      </trkpt>
      <trkpt lat="47.77652" lon="-3.3619">
        <ele>64</ele>
        <time>2015-01-16T13:10:53.472Z</time>
      </trkpt>
      <trkpt lat="47.77659" lon="-3.36166">
        <ele>64</ele>
        <time>2015-01-16T13:10:54.475Z</time>
      </trkpt>
      <trkpt lat="47.77667" lon="-3.36142">
        <ele>63</ele>
        <time>2015-01-16T13:10:55.494Z</time>
      </trkpt>
      <trkpt lat="47.77674" lon="-3.36119">
        <ele>63</ele>
        <time>2015-01-16T13:10:56.495Z</time>
      </trkpt>
      <trkpt lat="47.77681" lon="-3.36096">
        <ele>61</ele>
        <time>2015-01-16T13:10:57.488Z</time>
      </trkpt>
      <trkpt lat="47.77688" lon="-3.36071">
        <ele>61</ele>
        <time>2015-01-16T13:10:58.499Z</time>
      </trkpt>
      <trkpt lat="47.77695" lon="-3.36045">
        <ele>60</ele>
        <time>2015-01-16T13:10:59.501Z</time>
      </trkpt>
      <trkpt lat="47.77702" lon="-3.3602">
        <ele>59</ele>
        <time>2015-01-16T13:11:00.487Z</time>
      </trkpt>
      <trkpt lat="47.77709" lon="-3.35995">
        <ele>58</ele>
        <time>2015-01-16T13:11:01.494Z</time>
      </trkpt>
      <trkpt lat="47.77716" lon="-3.35969">
        <ele>57</ele>
        <time>2015-01-16T13:11:02.497Z</time>
      </trkpt>
      <trkpt lat="47.77723" lon="-3.35944">
        <ele>57</ele>
        <time>2015-01-16T13:11:03.485Z</time>
      </trkpt>
      <trkpt lat="47.77729" lon="-3.35918">
        <ele>56</ele>
        <time>2015-01-16T13:11:04.480Z</time>
      </trkpt>
      <trkpt lat="47.77734" lon="-3.35891">
        <ele>56</ele>
        <time>2015-01-16T13:11:05.474Z</time>
      </trkpt>
      <trkpt lat="47.7774" lon="-3.35864">
        <ele>56</ele>
        <time>2015-01-16T13:11:06.485Z</time>
      </trkpt>
      <trkpt lat="47.77745" lon="-3.35838">
        <ele>55</ele>
        <time>2015-01-16T13:11:07.491Z</time>
      </trkpt>
      <trkpt lat="47.7775" lon="-3.35813">
        <ele>55</ele>
        <time>2015-01-16T13:11:08.488Z</time>
      </trkpt>
      <trkpt lat="47.77755" lon="-3.35786">
        <ele>55</ele>
        <time>2015-01-16T13:11:09.482Z</time>
      </trkpt>
      <trkpt lat="47.7776" lon="-3.35759">
        <ele>55</ele>
        <time>2015-01-16T13:11:10.483Z</time>
      </trkpt>
      <trkpt lat="47.77765" lon="-3.35732">
        <ele>55</ele>
        <time>2015-01-16T13:11:11.482Z</time>
      </trkpt>
      <trkpt lat="47.77769" lon="-3.35704">
        <ele>55</ele>
        <time>2015-01-16T13:11:12.506Z</time>
      </trkpt>
      <trkpt lat="47.77774" lon="-3.35676">
        <ele>56</ele>
        <time>2015-01-16T13:11:13.492Z</time>
      </trkpt>
      <trkpt lat="47.77779" lon="-3.35648">
        <ele>56</ele>
        <time>2015-01-16T13:11:14.498Z</time>
      </trkpt>
      <trkpt lat="47.77783" lon="-3.35621">
        <ele>56</ele>
        <time>2015-01-16T13:11:15.489Z</time>
      </trkpt>
      <trkpt lat="47.77787" lon="-3.35594">
        <ele>55</ele>
        <time>2015-01-16T13:11:16.494Z</time>
      </trkpt>
      <trkpt lat="47.77791" lon="-3.35567">
        <ele>55</ele>
        <time>2015-01-16T13:11:17.505Z</time>
      </trkpt>
      <trkpt lat="47.77795" lon="-3.35541">
        <ele>56</ele>
        <time>2015-01-16T13:11:18.504Z</time>
      </trkpt>
      <trkpt lat="47.77799" lon="-3.35516">
        <ele>56</ele>
        <time>2015-01-16T13:11:19.479Z</time>
      </trkpt>
      <trkpt lat="47.77803" lon="-3.3549">
        <ele>55</ele>
        <time>2015-01-16T13:11:20.482Z</time>
      </trkpt>
      <trkpt lat="47.77806" lon="-3.35465">
        <ele>55</ele>
        <time>2015-01-16T13:11:21.477Z</time>
      </trkpt>
      <trkpt lat="47.7781" lon="-3.35439">
        <ele>55</ele>
        <time>2015-01-16T13:11:22.468Z</time>
      </trkpt>
      <trkpt lat="47.77814" lon="-3.35412">
        <ele>55</ele>
        <time>2015-01-16T13:11:23.481Z</time>
      </trkpt>
      <trkpt lat="47.77817" lon="-3.35385">
        <ele>55</ele>
        <time>2015-01-16T13:11:24.459Z</time>
      </trkpt>
      <trkpt lat="47.7782" lon="-3.35357">
        <ele>56</ele>
        <time>2015-01-16T13:11:25.462Z</time>
      </trkpt>
      <trkpt lat="47.77823" lon="-3.35331">
        <ele>56</ele>
        <time>2015-01-16T13:11:26.466Z</time>
      </trkpt>
      <trkpt lat="47.77826" lon="-3.35306">
        <ele>56</ele>
        <time>2015-01-16T13:11:27.476Z</time>
      </trkpt>
      <trkpt lat="47.77828" lon="-3.35282">
        <ele>56</ele>
        <time>2015-01-16T13:11:28.481Z</time>
      </trkpt>
      <trkpt lat="47.7783" lon="-3.35257">
        <ele>57</ele>
        <time>2015-01-16T13:11:29.478Z</time>
      </trkpt>
      <trkpt lat="47.77832" lon="-3.35232">
        <ele>57</ele>
        <time>2015-01-16T13:11:30.467Z</time>
      </trkpt>
      <trkpt lat="47.77835" lon="-3.35208">
        <ele>57</ele>
        <time>2015-01-16T13:11:31.486Z</time>
      </trkpt>
      <trkpt lat="47.77837" lon="-3.35183">
        <ele>57</ele>
        <time>2015-01-16T13:11:32.495Z</time>
      </trkpt>
      <trkpt lat="47.7784" lon="-3.35157">
        <ele>57</ele>
        <time>2015-01-16T13:11:33.481Z</time>
      </trkpt>
      <trkpt lat="47.77843" lon="-3.35132">
        <ele>57</ele>
        <time>2015-01-16T13:11:34.479Z</time>
      </trkpt>
      <trkpt lat="47.77846" lon="-3.35106">
        <ele>58</ele>
        <time>2015-01-16T13:11:35.502Z</time>
      </trkpt>
      <trkpt lat="47.7785" lon="-3.3508">
        <ele>58</ele>
        <time>2015-01-16T13:11:36.510Z</time>
      </trkpt>
      <trkpt lat="47.77854" lon="-3.35055">
        <ele>58</ele>
        <time>2015-01-16T13:11:37.475Z</time>
      </trkpt>
      <trkpt lat="47.77857" lon="-3.35029">
        <ele>58</ele>
        <time>2015-01-16T13:11:38.482Z</time>
      </trkpt>
      <trkpt lat="47.77861" lon="-3.35004">
        <ele>58</ele>
        <time>2015-01-16T13:11:39.491Z</time>
      </trkpt>
      <trkpt lat="47.77864" lon="-3.34979">
        <ele>58</ele>
        <time>2015-01-16T13:11:40.484Z</time>
      </trkpt>
      <trkpt lat="47.77867" lon="-3.34954">
        <ele>58</ele>
        <time>2015-01-16T13:11:41.521Z</time>
      </trkpt>
      <trkpt lat="47.77871" lon="-3.34929">
        <ele>58</ele>
        <time>2015-01-16T13:11:42.491Z</time>
      </trkpt>
      <trkpt lat="47.77874" lon="-3.34903">
        <ele>58</ele>
        <time>2015-01-16T13:11:43.481Z</time>
      </trkpt>
      <trkpt lat="47.77877" lon="-3.34878">
        <ele>58</ele>
        <time>2015-01-16T13:11:44.484Z</time>
      </trkpt>
      <trkpt lat="47.7788" lon="-3.34853">
        <ele>58</ele>
        <time>2015-01-16T13:11:45.475Z</time>
      </trkpt>
      <trkpt lat="47.77881" lon="-3.34828">
        <ele>59</ele>
        <time>2015-01-16T13:11:46.497Z</time>
      </trkpt>
      <trkpt lat="47.77882" lon="-3.34803">
        <ele>60</ele>
        <time>2015-01-16T13:11:47.496Z</time>
      </trkpt>
      <trkpt lat="47.77883" lon="-3.34778">
        <ele>60</ele>
        <time>2015-01-16T13:11:48.488Z</time>
      </trkpt>
      <trkpt lat="47.77883" lon="-3.34754">
        <ele>61</ele>
        <time>2015-01-16T13:11:49.480Z</time>
      </trkpt>
      <trkpt lat="47.77882" lon="-3.3473">
        <ele>61</ele>
        <time>2015-01-16T13:11:50.477Z</time>
      </trkpt>
      <trkpt lat="47.77882" lon="-3.34709">
        <ele>62</ele>
        <time>2015-01-16T13:11:51.467Z</time>
      </trkpt>
      <trkpt lat="47.77882" lon="-3.34688">
        <ele>63</ele>
        <time>2015-01-16T13:11:52.473Z</time>
      </trkpt>
      <trkpt lat="47.77882" lon="-3.34669">
        <ele>63</ele>
        <time>2015-01-16T13:11:53.461Z</time>
      </trkpt>
      <trkpt lat="47.77882" lon="-3.3465">
        <ele>64</ele>
        <time>2015-01-16T13:11:54.473Z</time>
      </trkpt>
      <trkpt lat="47.77882" lon="-3.34632">
        <ele>64</ele>
        <time>2015-01-16T13:11:55.456Z</time>
      </trkpt>
      <trkpt lat="47.77881" lon="-3.34615">
        <ele>65</ele>
        <time>2015-01-16T13:11:56.473Z</time>
      </trkpt>
      <trkpt lat="47.77879" lon="-3.34601">
        <ele>65</ele>
        <time>2015-01-16T13:11:57.480Z</time>
      </trkpt>
      <trkpt lat="47.77876" lon="-3.34587">
        <ele>65</ele>
        <time>2015-01-16T13:11:58.467Z</time>
      </trkpt>
      <trkpt lat="47.77872" lon="-3.34575">
        <ele>65</ele>
        <time>2015-01-16T13:11:59.487Z</time>
      </trkpt>
      <trkpt lat="47.77868" lon="-3.34563">
        <ele>65</ele>
        <time>2015-01-16T13:12:00.475Z</time>
      </trkpt>
      <trkpt lat="47.77862" lon="-3.34553">
        <ele>65</ele>
        <time>2015-01-16T13:12:01.485Z</time>
      </trkpt>
      <trkpt lat="47.77856" lon="-3.34544">
        <ele>65</ele>
        <time>2015-01-16T13:12:02.481Z</time>
      </trkpt>
      <trkpt lat="47.77851" lon="-3.34537">
        <ele>65</ele>
        <time>2015-01-16T13:12:03.470Z</time>
      </trkpt>
      <trkpt lat="47.77845" lon="-3.34531">
        <ele>66</ele>
        <time>2015-01-16T13:12:04.482Z</time>
      </trkpt>
      <trkpt lat="47.7784" lon="-3.34526">
        <ele>65</ele>
        <time>2015-01-16T13:12:05.497Z</time>
      </trkpt>
      <trkpt lat="47.77834" lon="-3.34521">
        <ele>65</ele>
        <time>2015-01-16T13:12:06.472Z</time>
      </trkpt>
      <trkpt lat="47.77825" lon="-3.34517">
        <ele>65</ele>
        <time>2015-01-16T13:12:07.472Z</time>
      </trkpt>
      <trkpt lat="47.77817" lon="-3.34516">
        <ele>66</ele>
        <time>2015-01-16T13:12:08.480Z</time>
      </trkpt>
      <trkpt lat="47.77805" lon="-3.3452">
        <ele>66</ele>
        <time>2015-01-16T13:12:09.472Z</time>
      </trkpt>
      <trkpt lat="47.77795" lon="-3.34521">
        <ele>67</ele>
        <time>2015-01-16T13:12:10.469Z</time>
      </trkpt>
      <trkpt lat="47.77786" lon="-3.34521">
        <ele>67</ele>
        <time>2015-01-16T13:12:11.466Z</time>
      </trkpt>
      <trkpt lat="47.77776" lon="-3.34516">
        <ele>66</ele>
        <time>2015-01-16T13:12:12.472Z</time>
      </trkpt>
      <trkpt lat="47.77768" lon="-3.34508">
        <ele>67</ele>
        <time>2015-01-16T13:12:13.467Z</time>
      </trkpt>
      <trkpt lat="47.77761" lon="-3.34499">
        <ele>67</ele>
        <time>2015-01-16T13:12:14.445Z</time>
      </trkpt>
      <trkpt lat="47.77756" lon="-3.34487">
        <ele>67</ele>
        <time>2015-01-16T13:12:15.462Z</time>
      </trkpt>
      <trkpt lat="47.77752" lon="-3.34474">
        <ele>67</ele>
        <time>2015-01-16T13:12:16.466Z</time>
      </trkpt>
      <trkpt lat="47.7775" lon="-3.34459">
        <ele>66</ele>
        <time>2015-01-16T13:12:17.482Z</time>
      </trkpt>
      <trkpt lat="47.77751" lon="-3.34443">
        <ele>66</ele>
        <time>2015-01-16T13:12:18.482Z</time>
      </trkpt>
      <trkpt lat="47.77753" lon="-3.3443">
        <ele>66</ele>
        <time>2015-01-16T13:12:19.476Z</time>
      </trkpt>
      <trkpt lat="47.77757" lon="-3.34417">
        <ele>66</ele>
        <time>2015-01-16T13:12:20.491Z</time>
      </trkpt>
      <trkpt lat="47.77763" lon="-3.34405">
        <ele>65</ele>
        <time>2015-01-16T13:12:21.477Z</time>
      </trkpt>
      <trkpt lat="47.77771" lon="-3.34397">
        <ele>65</ele>
        <time>2015-01-16T13:12:22.475Z</time>
      </trkpt>
      <trkpt lat="47.7778" lon="-3.3439">
        <ele>64</ele>
        <time>2015-01-16T13:12:23.470Z</time>
      </trkpt>
      <trkpt lat="47.77789" lon="-3.34387">
        <ele>64</ele>
        <time>2015-01-16T13:12:24.482Z</time>
      </trkpt>
      <trkpt lat="47.77799" lon="-3.34386">
        <ele>64</ele>
        <time>2015-01-16T13:12:25.472Z</time>
      </trkpt>
      <trkpt lat="47.77809" lon="-3.34387">
        <ele>64</ele>
        <time>2015-01-16T13:12:26.460Z</time>
      </trkpt>
      <trkpt lat="47.7782" lon="-3.34391">
        <ele>64</ele>
        <time>2015-01-16T13:12:27.476Z</time>
      </trkpt>
      <trkpt lat="47.77829" lon="-3.34396">
        <ele>64</ele>
        <time>2015-01-16T13:12:28.460Z</time>
      </trkpt>
      <trkpt lat="47.77838" lon="-3.34398">
        <ele>64</ele>
        <time>2015-01-16T13:12:29.465Z</time>
      </trkpt>
      <trkpt lat="47.77847" lon="-3.34397">
        <ele>64</ele>
        <time>2015-01-16T13:12:30.489Z</time>
      </trkpt>
      <trkpt lat="47.77855" lon="-3.34391">
        <ele>63</ele>
        <time>2015-01-16T13:12:31.475Z</time>
      </trkpt>
      <trkpt lat="47.77865" lon="-3.34385">
        <ele>63</ele>
        <time>2015-01-16T13:12:32.474Z</time>
      </trkpt>
      <trkpt lat="47.77875" lon="-3.34379">
        <ele>63</ele>
        <time>2015-01-16T13:12:33.473Z</time>
      </trkpt>
      <trkpt lat="47.77886" lon="-3.34373">
        <ele>63</ele>
        <time>2015-01-16T13:12:34.464Z</time>
      </trkpt>
      <trkpt lat="47.77898" lon="-3.34369">
        <ele>63</ele>
        <time>2015-01-16T13:12:35.473Z</time>
      </trkpt>
      <trkpt lat="47.7791" lon="-3.34365">
        <ele>63</ele>
        <time>2015-01-16T13:12:36.475Z</time>
      </trkpt>
      <trkpt lat="47.77921" lon="-3.34363">
        <ele>62</ele>
        <time>2015-01-16T13:12:37.469Z</time>
      </trkpt>
      <trkpt lat="47.7793" lon="-3.3436">
        <ele>62</ele>
        <time>2015-01-16T13:12:38.474Z</time>
      </trkpt>
      <trkpt lat="47.77939" lon="-3.34357">
        <ele>62</ele>
        <time>2015-01-16T13:12:39.484Z</time>
      </trkpt>
      <trkpt lat="47.77947" lon="-3.34354">
        <ele>62</ele>
        <time>2015-01-16T13:12:40.468Z</time>
      </trkpt>
      <trkpt lat="47.77954" lon="-3.34349">
        <ele>61</ele>
        <time>2015-01-16T13:12:41.453Z</time>
      </trkpt>
      <trkpt lat="47.77962" lon="-3.34343">
        <ele>61</ele>
        <time>2015-01-16T13:12:42.464Z</time>
      </trkpt>
      <trkpt lat="47.77969" lon="-3.34334">
        <ele>61</ele>
        <time>2015-01-16T13:12:43.477Z</time>
      </trkpt>
      <trkpt lat="47.77976" lon="-3.34324">
        <ele>60</ele>
        <time>2015-01-16T13:12:44.480Z</time>
      </trkpt>
      <trkpt lat="47.77983" lon="-3.34309">
        <ele>60</ele>
        <time>2015-01-16T13:12:45.484Z</time>
      </trkpt>
      <trkpt lat="47.77988" lon="-3.34293">
        <ele>59</ele>
        <time>2015-01-16T13:12:46.479Z</time>
      </trkpt>
      <trkpt lat="47.77994" lon="-3.34277">
        <ele>59</ele>
        <time>2015-01-16T13:12:47.483Z</time>
      </trkpt>
      <trkpt lat="47.78001" lon="-3.3426">
        <ele>59</ele>
        <time>2015-01-16T13:12:48.471Z</time>
      </trkpt>
      <trkpt lat="47.78008" lon="-3.34245">
        <ele>59</ele>
        <time>2015-01-16T13:12:49.468Z</time>
      </trkpt>
      <trkpt lat="47.78016" lon="-3.34232">
        <ele>59</ele>
        <time>2015-01-16T13:12:50.460Z</time>
      </trkpt>
      <trkpt lat="47.78027" lon="-3.3422">
        <ele>59</ele>
        <time>2015-01-16T13:12:51.480Z</time>
      </trkpt>
      <trkpt lat="47.78037" lon="-3.34208">
        <ele>58</ele>
        <time>2015-01-16T13:12:52.478Z</time>
      </trkpt>
      <trkpt lat="47.78047" lon="-3.34198">
        <ele>58</ele>
        <time>2015-01-16T13:12:53.465Z</time>
      </trkpt>
      <trkpt lat="47.78057" lon="-3.34188">
        <ele>58</ele>
        <time>2015-01-16T13:12:54.480Z</time>
      </trkpt>
      <trkpt lat="47.78067" lon="-3.34178">
        <ele>58</ele>
        <time>2015-01-16T13:12:55.488Z</time>
      </trkpt>
      <trkpt lat="47.78077" lon="-3.34169">
        <ele>58</ele>
        <time>2015-01-16T13:12:56.482Z</time>
      </trkpt>
      <trkpt lat="47.78087" lon="-3.34159">
        <ele>57</ele>
        <time>2015-01-16T13:12:57.486Z</time>
      </trkpt>
      <trkpt lat="47.78097" lon="-3.34149">
        <ele>57</ele>
        <time>2015-01-16T13:12:58.483Z</time>
      </trkpt>
      <trkpt lat="47.78108" lon="-3.34138">
        <ele>57</ele>
        <time>2015-01-16T13:12:59.494Z</time>
      </trkpt>
      <trkpt lat="47.78119" lon="-3.34128">
        <ele>57</ele>
        <time>2015-01-16T13:13:00.486Z</time>
      </trkpt>
      <trkpt lat="47.78129" lon="-3.34117">
        <ele>57</ele>
        <time>2015-01-16T13:13:01.479Z</time>
      </trkpt>
      <trkpt lat="47.7814" lon="-3.34106">
        <ele>57</ele>
        <time>2015-01-16T13:13:02.476Z</time>
      </trkpt>
      <trkpt lat="47.78151" lon="-3.34095">
        <ele>57</ele>
        <time>2015-01-16T13:13:03.488Z</time>
      </trkpt>
      <trkpt lat="47.78161" lon="-3.34084">
        <ele>57</ele>
        <time>2015-01-16T13:13:04.493Z</time>
      </trkpt>
      <trkpt lat="47.78171" lon="-3.34072">
        <ele>57</ele>
        <time>2015-01-16T13:13:05.494Z</time>
      </trkpt>
      <trkpt lat="47.78181" lon="-3.3406">
        <ele>57</ele>
        <time>2015-01-16T13:13:06.508Z</time>
      </trkpt>
      <trkpt lat="47.7819" lon="-3.34048">
        <ele>56</ele>
        <time>2015-01-16T13:13:07.480Z</time>
      </trkpt>
      <trkpt lat="47.78198" lon="-3.34036">
        <ele>57</ele>
        <time>2015-01-16T13:13:08.485Z</time>
      </trkpt>
      <trkpt lat="47.78206" lon="-3.34024">
        <ele>57</ele>
        <time>2015-01-16T13:13:09.496Z</time>
      </trkpt>
      <trkpt lat="47.78213" lon="-3.34013">
        <ele>57</ele>
        <time>2015-01-16T13:13:10.494Z</time>
      </trkpt>
      <trkpt lat="47.78219" lon="-3.34004">
        <ele>57</ele>
        <time>2015-01-16T13:13:11.539Z</time>
      </trkpt>
      <trkpt lat="47.78224" lon="-3.33995">
        <ele>57</ele>
        <time>2015-01-16T13:13:12.485Z</time>
      </trkpt>
      <trkpt lat="47.78228" lon="-3.33985">
        <ele>57</ele>
        <time>2015-01-16T13:13:13.469Z</time>
      </trkpt>
      <trkpt lat="47.78232" lon="-3.33975">
        <ele>57</ele>
        <time>2015-01-16T13:13:14.485Z</time>
      </trkpt>
      <trkpt lat="47.78237" lon="-3.33965">
        <ele>58</ele>
        <time>2015-01-16T13:13:15.496Z</time>
      </trkpt>
      <trkpt lat="47.78242" lon="-3.33954">
        <ele>58</ele>
        <time>2015-01-16T13:13:16.490Z</time>
      </trkpt>
      <trkpt lat="47.78246" lon="-3.33944">
        <ele>58</ele>
        <time>2015-01-16T13:13:17.528Z</time>
      </trkpt>
      <trkpt lat="47.7825" lon="-3.33934">
        <ele>58</ele>
        <time>2015-01-16T13:13:18.475Z</time>
      </trkpt>
      <trkpt lat="47.78254" lon="-3.33924">
        <ele>58</ele>
        <time>2015-01-16T13:13:19.464Z</time>
      </trkpt>
      <trkpt lat="47.78258" lon="-3.33914">
        <ele>58</ele>
        <time>2015-01-16T13:13:20.474Z</time>
      </trkpt>
      <trkpt lat="47.78261" lon="-3.33906">
        <ele>58</ele>
        <time>2015-01-16T13:13:21.479Z</time>
      </trkpt>
      <trkpt lat="47.78264" lon="-3.33899">
        <ele>59</ele>
        <time>2015-01-16T13:13:22.460Z</time>
      </trkpt>
      <trkpt lat="47.78267" lon="-3.33892">
        <ele>59</ele>
        <time>2015-01-16T13:13:23.466Z</time>
      </trkpt>
      <trkpt lat="47.78269" lon="-3.33887">
        <ele>60</ele>
        <time>2015-01-16T13:13:24.462Z</time>
      </trkpt>
      <trkpt lat="47.78274" lon="-3.33877">
        <ele>60</ele>
        <time>2015-01-16T13:13:28.471Z</time>
      </trkpt>
      <trkpt lat="47.78276" lon="-3.33873">
        <ele>60</ele>
        <time>2015-01-16T13:13:29.471Z</time>
      </trkpt>
      <trkpt lat="47.78282" lon="-3.33863">
        <ele>61</ele>
        <time>2015-01-16T13:13:31.488Z</time>
      </trkpt>
      <trkpt lat="47.78283" lon="-3.33861">
        <ele>61</ele>
        <time>2015-01-16T13:13:32.488Z</time>
      </trkpt>
      <trkpt lat="47.78286" lon="-3.33852">
        <ele>61</ele>
        <time>2015-01-16T13:13:35.486Z</time>
      </trkpt>
      <trkpt lat="47.78288" lon="-3.33845">
        <ele>62</ele>
        <time>2015-01-16T13:13:36.490Z</time>
      </trkpt>
      <trkpt lat="47.7829" lon="-3.33837">
        <ele>61</ele>
        <time>2015-01-16T13:13:37.478Z</time>
      </trkpt>
      <trkpt lat="47.78295" lon="-3.33828">
        <ele>62</ele>
        <time>2015-01-16T13:13:38.481Z</time>
      </trkpt>
      <trkpt lat="47.78301" lon="-3.33819">
        <ele>61</ele>
        <time>2015-01-16T13:13:39.492Z</time>
      </trkpt>
      <trkpt lat="47.7831" lon="-3.3381">
        <ele>61</ele>
        <time>2015-01-16T13:13:40.489Z</time>
      </trkpt>
      <trkpt lat="47.78319" lon="-3.338">
        <ele>61</ele>
        <time>2015-01-16T13:13:41.529Z</time>
      </trkpt>
      <trkpt lat="47.7833" lon="-3.3379">
        <ele>61</ele>
        <time>2015-01-16T13:13:42.494Z</time>
      </trkpt>
      <trkpt lat="47.78341" lon="-3.3378">
        <ele>61</ele>
        <time>2015-01-16T13:13:43.487Z</time>
      </trkpt>
      <trkpt lat="47.78352" lon="-3.33771">
        <ele>61</ele>
        <time>2015-01-16T13:13:44.490Z</time>
      </trkpt>
      <trkpt lat="47.78363" lon="-3.33761">
        <ele>61</ele>
        <time>2015-01-16T13:13:45.474Z</time>
      </trkpt>
      <trkpt lat="47.78375" lon="-3.33751">
        <ele>61</ele>
        <time>2015-01-16T13:13:46.485Z</time>
      </trkpt>
      <trkpt lat="47.78387" lon="-3.33741">
        <ele>61</ele>
        <time>2015-01-16T13:13:47.489Z</time>
      </trkpt>
      <trkpt lat="47.78399" lon="-3.3373">
        <ele>61</ele>
        <time>2015-01-16T13:13:48.491Z</time>
      </trkpt>
      <trkpt lat="47.78411" lon="-3.33719">
        <ele>61</ele>
        <time>2015-01-16T13:13:49.487Z</time>
      </trkpt>
      <trkpt lat="47.78423" lon="-3.33708">
        <ele>61</ele>
        <time>2015-01-16T13:13:50.479Z</time>
      </trkpt>
      <trkpt lat="47.78435" lon="-3.33694">
        <ele>61</ele>
        <time>2015-01-16T13:13:51.486Z</time>
      </trkpt>
      <trkpt lat="47.78447" lon="-3.3368">
        <ele>61</ele>
        <time>2015-01-16T13:13:52.478Z</time>
      </trkpt>
      <trkpt lat="47.78458" lon="-3.33665">
        <ele>61</ele>
        <time>2015-01-16T13:13:53.479Z</time>
      </trkpt>
      <trkpt lat="47.7847" lon="-3.33649">
        <ele>61</ele>
        <time>2015-01-16T13:13:54.478Z</time>
      </trkpt>
      <trkpt lat="47.7848" lon="-3.33632">
        <ele>61</ele>
        <time>2015-01-16T13:13:55.461Z</time>
      </trkpt>
      <trkpt lat="47.7849" lon="-3.33614">
        <ele>61</ele>
        <time>2015-01-16T13:13:56.467Z</time>
      </trkpt>
      <trkpt lat="47.78499" lon="-3.33595">
        <ele>61</ele>
        <time>2015-01-16T13:13:57.485Z</time>
      </trkpt>
      <trkpt lat="47.78507" lon="-3.33575">
        <ele>61</ele>
        <time>2015-01-16T13:13:58.473Z</time>
      </trkpt>
      <trkpt lat="47.78515" lon="-3.33554">
        <ele>61</ele>
        <time>2015-01-16T13:13:59.470Z</time>
      </trkpt>
      <trkpt lat="47.78522" lon="-3.33534">
        <ele>61</ele>
        <time>2015-01-16T13:14:00.470Z</time>
      </trkpt>
      <trkpt lat="47.78529" lon="-3.33514">
        <ele>61</ele>
        <time>2015-01-16T13:14:01.466Z</time>
      </trkpt>
      <trkpt lat="47.78536" lon="-3.33493">
        <ele>62</ele>
        <time>2015-01-16T13:14:02.466Z</time>
      </trkpt>
      <trkpt lat="47.78542" lon="-3.33474">
        <ele>62</ele>
        <time>2015-01-16T13:14:03.466Z</time>
      </trkpt>
      <trkpt lat="47.78549" lon="-3.33454">
        <ele>62</ele>
        <time>2015-01-16T13:14:04.469Z</time>
      </trkpt>
      <trkpt lat="47.78555" lon="-3.33434">
        <ele>63</ele>
        <time>2015-01-16T13:14:05.491Z</time>
      </trkpt>
      <trkpt lat="47.78562" lon="-3.33415">
        <ele>63</ele>
        <time>2015-01-16T13:14:06.477Z</time>
      </trkpt>
      <trkpt lat="47.78568" lon="-3.33396">
        <ele>64</ele>
        <time>2015-01-16T13:14:07.498Z</time>
      </trkpt>
      <trkpt lat="47.78574" lon="-3.33378">
        <ele>65</ele>
        <time>2015-01-16T13:14:08.486Z</time>
      </trkpt>
      <trkpt lat="47.7858" lon="-3.33363">
        <ele>65</ele>
        <time>2015-01-16T13:14:09.486Z</time>
      </trkpt>
      <trkpt lat="47.78584" lon="-3.33349">
        <ele>65</ele>
        <time>2015-01-16T13:14:10.487Z</time>
      </trkpt>
      <trkpt lat="47.78589" lon="-3.33337">
        <ele>66</ele>
        <time>2015-01-16T13:14:11.480Z</time>
      </trkpt>
      <trkpt lat="47.78592" lon="-3.33325">
        <ele>66</ele>
        <time>2015-01-16T13:14:12.483Z</time>
      </trkpt>
      <trkpt lat="47.78596" lon="-3.33313">
        <ele>67</ele>
        <time>2015-01-16T13:14:13.504Z</time>
      </trkpt>
      <trkpt lat="47.78601" lon="-3.33299">
        <ele>67</ele>
        <time>2015-01-16T13:14:14.491Z</time>
      </trkpt>
      <trkpt lat="47.78605" lon="-3.33284">
        <ele>68</ele>
        <time>2015-01-16T13:14:15.491Z</time>
      </trkpt>
      <trkpt lat="47.78611" lon="-3.33268">
        <ele>68</ele>
        <time>2015-01-16T13:14:16.486Z</time>
      </trkpt>
      <trkpt lat="47.78617" lon="-3.33251">
        <ele>69</ele>
        <time>2015-01-16T13:14:17.473Z</time>
      </trkpt>
      <trkpt lat="47.78622" lon="-3.33232">
        <ele>69</ele>
        <time>2015-01-16T13:14:18.477Z</time>
      </trkpt>
      <trkpt lat="47.78629" lon="-3.33212">
        <ele>70</ele>
        <time>2015-01-16T13:14:19.485Z</time>
      </trkpt>
      <trkpt lat="47.78636" lon="-3.33193">
        <ele>71</ele>
        <time>2015-01-16T13:14:20.485Z</time>
      </trkpt>
      <trkpt lat="47.78642" lon="-3.33174">
        <ele>71</ele>
        <time>2015-01-16T13:14:21.483Z</time>
      </trkpt>
      <trkpt lat="47.78648" lon="-3.33155">
        <ele>72</ele>
        <time>2015-01-16T13:14:22.499Z</time>
      </trkpt>
      <trkpt lat="47.78654" lon="-3.33137">
        <ele>74</ele>
        <time>2015-01-16T13:14:23.495Z</time>
      </trkpt>
      <trkpt lat="47.7866" lon="-3.33118">
        <ele>74</ele>
        <time>2015-01-16T13:14:24.483Z</time>
      </trkpt>
      <trkpt lat="47.78666" lon="-3.331">
        <ele>75</ele>
        <time>2015-01-16T13:14:25.484Z</time>
      </trkpt>
      <trkpt lat="47.78672" lon="-3.33081">
        <ele>77</ele>
        <time>2015-01-16T13:14:26.486Z</time>
      </trkpt>
      <trkpt lat="47.78679" lon="-3.33062">
        <ele>77</ele>
        <time>2015-01-16T13:14:27.476Z</time>
      </trkpt>
      <trkpt lat="47.78685" lon="-3.33043">
        <ele>78</ele>
        <time>2015-01-16T13:14:28.482Z</time>
      </trkpt>
      <trkpt lat="47.78691" lon="-3.33022">
        <ele>79</ele>
        <time>2015-01-16T13:14:29.496Z</time>
      </trkpt>
      <trkpt lat="47.78699" lon="-3.33001">
        <ele>80</ele>
        <time>2015-01-16T13:14:30.496Z</time>
      </trkpt>
      <trkpt lat="47.78706" lon="-3.3298">
        <ele>81</ele>
        <time>2015-01-16T13:14:31.476Z</time>
      </trkpt>
      <trkpt lat="47.78713" lon="-3.32959">
        <ele>81</ele>
        <time>2015-01-16T13:14:32.500Z</time>
      </trkpt>
      <trkpt lat="47.7872" lon="-3.32939">
        <ele>81</ele>
        <time>2015-01-16T13:14:33.479Z</time>
      </trkpt>
      <trkpt lat="47.78726" lon="-3.32919">
        <ele>82</ele>
        <time>2015-01-16T13:14:34.475Z</time>
      </trkpt>
      <trkpt lat="47.78733" lon="-3.329">
        <ele>83</ele>
        <time>2015-01-16T13:14:35.491Z</time>
      </trkpt>
      <trkpt lat="47.78739" lon="-3.32883">
        <ele>83</ele>
        <time>2015-01-16T13:14:36.489Z</time>
      </trkpt>
      <trkpt lat="47.78744" lon="-3.32866">
        <ele>83</ele>
        <time>2015-01-16T13:14:37.481Z</time>
      </trkpt>
      <trkpt lat="47.7875" lon="-3.3285">
        <ele>83</ele>
        <time>2015-01-16T13:14:38.494Z</time>
      </trkpt>
      <trkpt lat="47.78756" lon="-3.32833">
        <ele>84</ele>
        <time>2015-01-16T13:14:39.487Z</time>
      </trkpt>
      <trkpt lat="47.78762" lon="-3.32815">
        <ele>84</ele>
        <time>2015-01-16T13:14:40.486Z</time>
      </trkpt>
      <trkpt lat="47.78768" lon="-3.32797">
        <ele>84</ele>
        <time>2015-01-16T13:14:41.471Z</time>
      </trkpt>
      <trkpt lat="47.78775" lon="-3.32777">
        <ele>84</ele>
        <time>2015-01-16T13:14:42.481Z</time>
      </trkpt>
      <trkpt lat="47.78782" lon="-3.32756">
        <ele>84</ele>
        <time>2015-01-16T13:14:43.486Z</time>
      </trkpt>
      <trkpt lat="47.78788" lon="-3.32734">
        <ele>83</ele>
        <time>2015-01-16T13:14:44.492Z</time>
      </trkpt>
      <trkpt lat="47.78795" lon="-3.32713">
        <ele>83</ele>
        <time>2015-01-16T13:14:45.479Z</time>
      </trkpt>
      <trkpt lat="47.78803" lon="-3.3269">
        <ele>83</ele>
        <time>2015-01-16T13:14:46.472Z</time>
      </trkpt>
      <trkpt lat="47.78811" lon="-3.32667">
        <ele>83</ele>
        <time>2015-01-16T13:14:47.481Z</time>
      </trkpt>
      <trkpt lat="47.78819" lon="-3.32643">
        <ele>84</ele>
        <time>2015-01-16T13:14:48.496Z</time>
      </trkpt>
      <trkpt lat="47.78827" lon="-3.3262">
        <ele>84</ele>
        <time>2015-01-16T13:14:49.479Z</time>
      </trkpt>
      <trkpt lat="47.78834" lon="-3.32597">
        <ele>83</ele>
        <time>2015-01-16T13:14:50.476Z</time>
      </trkpt>
      <trkpt lat="47.78841" lon="-3.32574">
        <ele>84</ele>
        <time>2015-01-16T13:14:51.484Z</time>
      </trkpt>
      <trkpt lat="47.78847" lon="-3.32552">
        <ele>84</ele>
        <time>2015-01-16T13:14:52.485Z</time>
      </trkpt>
      <trkpt lat="47.78852" lon="-3.32529">
        <ele>84</ele>
        <time>2015-01-16T13:14:53.493Z</time>
      </trkpt>
      <trkpt lat="47.78856" lon="-3.32508">
        <ele>84</ele>
        <time>2015-01-16T13:14:54.488Z</time>
      </trkpt>
      <trkpt lat="47.7886" lon="-3.32488">
        <ele>84</ele>
        <time>2015-01-16T13:14:55.484Z</time>
      </trkpt>
      <trkpt lat="47.78862" lon="-3.32471">
        <ele>85</ele>
        <time>2015-01-16T13:14:56.474Z</time>
      </trkpt>
      <trkpt lat="47.78864" lon="-3.32455">
        <ele>86</ele>
        <time>2015-01-16T13:14:57.492Z</time>
      </trkpt>
      <trkpt lat="47.78865" lon="-3.32439">
        <ele>86</ele>
        <time>2015-01-16T13:14:58.503Z</time>
      </trkpt>
      <trkpt lat="47.78866" lon="-3.32424">
        <ele>86</ele>
        <time>2015-01-16T13:14:59.492Z</time>
      </trkpt>
      <trkpt lat="47.78867" lon="-3.32409">
        <ele>87</ele>
        <time>2015-01-16T13:15:00.484Z</time>
      </trkpt>
      <trkpt lat="47.78868" lon="-3.32393">
        <ele>87</ele>
        <time>2015-01-16T13:15:01.473Z</time>
      </trkpt>
      <trkpt lat="47.78869" lon="-3.32378">
        <ele>88</ele>
        <time>2015-01-16T13:15:02.493Z</time>
      </trkpt>
      <trkpt lat="47.7887" lon="-3.32362">
        <ele>89</ele>
        <time>2015-01-16T13:15:03.512Z</time>
      </trkpt>
      <trkpt lat="47.78871" lon="-3.32348">
        <ele>89</ele>
        <time>2015-01-16T13:15:04.502Z</time>
      </trkpt>
      <trkpt lat="47.78872" lon="-3.32333">
        <ele>89</ele>
        <time>2015-01-16T13:15:05.482Z</time>
      </trkpt>
      <trkpt lat="47.78874" lon="-3.3232">
        <ele>90</ele>
        <time>2015-01-16T13:15:06.491Z</time>
      </trkpt>
      <trkpt lat="47.78875" lon="-3.32307">
        <ele>91</ele>
        <time>2015-01-16T13:15:07.499Z</time>
      </trkpt>
      <trkpt lat="47.78877" lon="-3.32293">
        <ele>92</ele>
        <time>2015-01-16T13:15:08.486Z</time>
      </trkpt>
      <trkpt lat="47.7888" lon="-3.32278">
        <ele>92</ele>
        <time>2015-01-16T13:15:09.484Z</time>
      </trkpt>
      <trkpt lat="47.78884" lon="-3.32263">
        <ele>92</ele>
        <time>2015-01-16T13:15:10.493Z</time>
      </trkpt>
      <trkpt lat="47.78889" lon="-3.32249">
        <ele>92</ele>
        <time>2015-01-16T13:15:11.484Z</time>
      </trkpt>
      <trkpt lat="47.78896" lon="-3.32236">
        <ele>92</ele>
        <time>2015-01-16T13:15:12.492Z</time>
      </trkpt>
      <trkpt lat="47.78905" lon="-3.32223">
        <ele>92</ele>
        <time>2015-01-16T13:15:13.493Z</time>
      </trkpt>
      <trkpt lat="47.78916" lon="-3.32211">
        <ele>91</ele>
        <time>2015-01-16T13:15:14.499Z</time>
      </trkpt>
      <trkpt lat="47.78927" lon="-3.32199">
        <ele>91</ele>
        <time>2015-01-16T13:15:15.485Z</time>
      </trkpt>
      <trkpt lat="47.78938" lon="-3.32186">
        <ele>90</ele>
        <time>2015-01-16T13:15:16.480Z</time>
      </trkpt>
      <trkpt lat="47.78949" lon="-3.32175">
        <ele>90</ele>
        <time>2015-01-16T13:15:17.485Z</time>
      </trkpt>
      <trkpt lat="47.7896" lon="-3.32162">
        <ele>90</ele>
        <time>2015-01-16T13:15:18.494Z</time>
      </trkpt>
      <trkpt lat="47.7897" lon="-3.32148">
        <ele>90</ele>
        <time>2015-01-16T13:15:19.491Z</time>
      </trkpt>
      <trkpt lat="47.78978" lon="-3.32133">
        <ele>90</ele>
        <time>2015-01-16T13:15:20.484Z</time>
      </trkpt>
      <trkpt lat="47.78986" lon="-3.32116">
        <ele>90</ele>
        <time>2015-01-16T13:15:21.482Z</time>
      </trkpt>
      <trkpt lat="47.78994" lon="-3.32099">
        <ele>90</ele>
        <time>2015-01-16T13:15:22.486Z</time>
      </trkpt>
      <trkpt lat="47.78999" lon="-3.32083">
        <ele>90</ele>
        <time>2015-01-16T13:15:23.486Z</time>
      </trkpt>
      <trkpt lat="47.79005" lon="-3.32067">
        <ele>90</ele>
        <time>2015-01-16T13:15:24.482Z</time>
      </trkpt>
      <trkpt lat="47.7901" lon="-3.3205">
        <ele>90</ele>
        <time>2015-01-16T13:15:25.482Z</time>
      </trkpt>
      <trkpt lat="47.79015" lon="-3.32033">
        <ele>90</ele>
        <time>2015-01-16T13:15:26.478Z</time>
      </trkpt>
      <trkpt lat="47.79021" lon="-3.32017">
        <ele>90</ele>
        <time>2015-01-16T13:15:27.492Z</time>
      </trkpt>
      <trkpt lat="47.79026" lon="-3.32">
        <ele>91</ele>
        <time>2015-01-16T13:15:28.484Z</time>
      </trkpt>
      <trkpt lat="47.79031" lon="-3.31983">
        <ele>91</ele>
        <time>2015-01-16T13:15:29.482Z</time>
      </trkpt>
      <trkpt lat="47.79036" lon="-3.31964">
        <ele>91</ele>
        <time>2015-01-16T13:15:30.475Z</time>
      </trkpt>
      <trkpt lat="47.79041" lon="-3.31947">
        <ele>91</ele>
        <time>2015-01-16T13:15:31.477Z</time>
      </trkpt>
      <trkpt lat="47.79047" lon="-3.31929">
        <ele>91</ele>
        <time>2015-01-16T13:15:32.488Z</time>
      </trkpt>
      <trkpt lat="47.79053" lon="-3.31912">
        <ele>91</ele>
        <time>2015-01-16T13:15:33.486Z</time>
      </trkpt>
      <trkpt lat="47.79059" lon="-3.31895">
        <ele>90</ele>
        <time>2015-01-16T13:15:34.467Z</time>
      </trkpt>
      <trkpt lat="47.79065" lon="-3.31879">
        <ele>90</ele>
        <time>2015-01-16T13:15:35.465Z</time>
      </trkpt>
      <trkpt lat="47.7907" lon="-3.31865">
        <ele>90</ele>
        <time>2015-01-16T13:15:36.463Z</time>
      </trkpt>
      <trkpt lat="47.79073" lon="-3.31851">
        <ele>90</ele>
        <time>2015-01-16T13:15:37.477Z</time>
      </trkpt>
      <trkpt lat="47.79074" lon="-3.31838">
        <ele>90</ele>
        <time>2015-01-16T13:15:38.466Z</time>
      </trkpt>
      <trkpt lat="47.79072" lon="-3.31825">
        <ele>90</ele>
        <time>2015-01-16T13:15:39.476Z</time>
      </trkpt>
      <trkpt lat="47.79067" lon="-3.31812">
        <ele>90</ele>
        <time>2015-01-16T13:15:40.457Z</time>
      </trkpt>
      <trkpt lat="47.79061" lon="-3.31798">
        <ele>89</ele>
        <time>2015-01-16T13:15:41.464Z</time>
      </trkpt>
      <trkpt lat="47.79054" lon="-3.31784">
        <ele>89</ele>
        <time>2015-01-16T13:15:42.473Z</time>
      </trkpt>
      <trkpt lat="47.79047" lon="-3.31774">
        <ele>89</ele>
        <time>2015-01-16T13:15:43.472Z</time>
      </trkpt>
      <trkpt lat="47.79037" lon="-3.31766">
        <ele>88</ele>
        <time>2015-01-16T13:15:44.472Z</time>
      </trkpt>
      <trkpt lat="47.79026" lon="-3.31759">
        <ele>88</ele>
        <time>2015-01-16T13:15:45.467Z</time>
      </trkpt>
      <trkpt lat="47.79013" lon="-3.3175">
        <ele>87</ele>
        <time>2015-01-16T13:15:46.471Z</time>
      </trkpt>
      <trkpt lat="47.79" lon="-3.3174">
        <ele>86</ele>
        <time>2015-01-16T13:15:47.465Z</time>
      </trkpt>
      <trkpt lat="47.78984" lon="-3.3173">
        <ele>85</ele>
        <time>2015-01-16T13:15:48.477Z</time>
      </trkpt>
      <trkpt lat="47.78968" lon="-3.31718">
        <ele>85</ele>
        <time>2015-01-16T13:15:49.468Z</time>
      </trkpt>
      <trkpt lat="47.78952" lon="-3.31707">
        <ele>85</ele>
        <time>2015-01-16T13:15:50.470Z</time>
      </trkpt>
      <trkpt lat="47.78936" lon="-3.31696">
        <ele>85</ele>
        <time>2015-01-16T13:15:51.471Z</time>
      </trkpt>
      <trkpt lat="47.78922" lon="-3.31687">
        <ele>86</ele>
        <time>2015-01-16T13:15:52.471Z</time>
      </trkpt>
      <trkpt lat="47.78908" lon="-3.31677">
        <ele>86</ele>
        <time>2015-01-16T13:15:53.485Z</time>
      </trkpt>
      <trkpt lat="47.78894" lon="-3.31669">
        <ele>86</ele>
        <time>2015-01-16T13:15:54.468Z</time>
      </trkpt>
      <trkpt lat="47.78882" lon="-3.31661">
        <ele>86</ele>
        <time>2015-01-16T13:15:55.473Z</time>
      </trkpt>
      <trkpt lat="47.78872" lon="-3.31653">
        <ele>86</ele>
        <time>2015-01-16T13:15:56.486Z</time>
      </trkpt>
      <trkpt lat="47.78862" lon="-3.31647">
        <ele>86</ele>
        <time>2015-01-16T13:15:57.499Z</time>
      </trkpt>
      <trkpt lat="47.78854" lon="-3.31642">
        <ele>86</ele>
        <time>2015-01-16T13:15:58.497Z</time>
      </trkpt>
      <trkpt lat="47.78847" lon="-3.31637">
        <ele>86</ele>
        <time>2015-01-16T13:15:59.482Z</time>
      </trkpt>
      <trkpt lat="47.78842" lon="-3.31633">
        <ele>87</ele>
        <time>2015-01-16T13:16:00.493Z</time>
      </trkpt>
      <trkpt lat="47.78837" lon="-3.31628">
        <ele>87</ele>
        <time>2015-01-16T13:16:01.486Z</time>
      </trkpt>
      <trkpt lat="47.78835" lon="-3.3162">
        <ele>87</ele>
        <time>2015-01-16T13:16:02.495Z</time>
      </trkpt>
      <trkpt lat="47.78834" lon="-3.31611">
        <ele>87</ele>
        <time>2015-01-16T13:16:03.499Z</time>
      </trkpt>
      <trkpt lat="47.78834" lon="-3.31599">
        <ele>87</ele>
        <time>2015-01-16T13:16:04.496Z</time>
      </trkpt>
      <trkpt lat="47.78833" lon="-3.31586">
        <ele>88</ele>
        <time>2015-01-16T13:16:05.483Z</time>
      </trkpt>
      <trkpt lat="47.78833" lon="-3.3157">
        <ele>88</ele>
        <time>2015-01-16T13:16:06.492Z</time>
      </trkpt>
      <trkpt lat="47.78833" lon="-3.31552">
        <ele>88</ele>
        <time>2015-01-16T13:16:07.508Z</time>
      </trkpt>
      <trkpt lat="47.78833" lon="-3.31536">
        <ele>89</ele>
        <time>2015-01-16T13:16:08.501Z</time>
      </trkpt>
      <trkpt lat="47.78832" lon="-3.31521">
        <ele>89</ele>
        <time>2015-01-16T13:16:09.484Z</time>
      </trkpt>
      <trkpt lat="47.78832" lon="-3.31508">
        <ele>89</ele>
        <time>2015-01-16T13:16:10.480Z</time>
      </trkpt>
      <trkpt lat="47.78831" lon="-3.31496">
        <ele>89</ele>
        <time>2015-01-16T13:16:11.497Z</time>
      </trkpt>
      <trkpt lat="47.7883" lon="-3.31487">
        <ele>90</ele>
        <time>2015-01-16T13:16:12.484Z</time>
      </trkpt>
      <trkpt lat="47.78829" lon="-3.31478">
        <ele>90</ele>
        <time>2015-01-16T13:16:13.490Z</time>
      </trkpt>
      <trkpt lat="47.78828" lon="-3.31471">
        <ele>90</ele>
        <time>2015-01-16T13:16:14.495Z</time>
      </trkpt>
      <trkpt lat="47.78825" lon="-3.31465">
        <ele>90</ele>
        <time>2015-01-16T13:16:15.476Z</time>
      </trkpt>
      <trkpt lat="47.7882" lon="-3.31461">
        <ele>89</ele>
        <time>2015-01-16T13:16:16.510Z</time>
      </trkpt>
      <trkpt lat="47.78815" lon="-3.3146">
        <ele>90</ele>
        <time>2015-01-16T13:16:17.490Z</time>
      </trkpt>
      <trkpt lat="47.78808" lon="-3.3146">
        <ele>89</ele>
        <time>2015-01-16T13:16:18.496Z</time>
      </trkpt>
      <trkpt lat="47.78803" lon="-3.31463">
        <ele>89</ele>
        <time>2015-01-16T13:16:19.474Z</time>
      </trkpt>
      <trkpt lat="47.78796" lon="-3.31469">
        <ele>89</ele>
        <time>2015-01-16T13:16:21.495Z</time>
      </trkpt>
      <trkpt lat="47.78794" lon="-3.31473">
        <ele>89</ele>
        <time>2015-01-16T13:16:22.499Z</time>
      </trkpt>
      <trkpt lat="47.78789" lon="-3.3148">
        <ele>89</ele>
        <time>2015-01-16T13:16:24.569Z</time>
      </trkpt>
      <trkpt lat="47.78786" lon="-3.31483">
        <ele>89</ele>
        <time>2015-01-16T13:16:25.487Z</time>
      </trkpt>
      <trkpt lat="47.78778" lon="-3.31483">
        <ele>89</ele>
        <time>2015-01-16T13:16:27.496Z</time>
      </trkpt>
      <trkpt lat="47.78777" lon="-3.31481">
        <ele>90</ele>
        <time>2015-01-16T13:16:28.503Z</time>
      </trkpt>
      <trkpt lat="47.78779" lon="-3.31484">
        <ele>89</ele>
        <time>2015-01-16T13:16:58.608Z</time>
      </trkpt>
    </trkseg>
  </trk>
</gpx>